<?xml version="1.0" encoding="UTF-8" standalone="no" ?>
<gpx xmlns="http://www.topografix.com/GPX/1/1" xmlns:xsi="http://www.w3.org/2001/XMLSchema-instance" xsi:schemaLocation="http://www.topografix.com/GPX/1/1 http://www.topografix.com/GPX/1/1/gpx.xsd" version="1.1" creator="VisuGPX - https://www.visugpx.com">
  <metadata>
    <name>Vignacourt_14km</name>
    <desc><![CDATA[Walkmeter Randonnée 22 déc. 2013 09:09:16]]></desc>
  </metadata>
  <trk>
    <name><![CDATA[Ch en S_Vignacourt dec 2013]]></name>
    <trkseg>
      <trkpt lat="50.01184" lon="2.1966">
        <ele>123.5</ele>
        <time>2013-12-22T08:09:16Z</time>
      </trkpt>
      <trkpt lat="50.01198" lon="2.19669">
        <ele>123.7</ele>
        <time>2013-12-22T08:09:18Z</time>
      </trkpt>
      <trkpt lat="50.01179" lon="2.19659">
        <ele>124.4</ele>
        <time>2013-12-22T08:09:21Z</time>
      </trkpt>
      <trkpt lat="50.01187" lon="2.19677">
        <ele>127.7</ele>
        <time>2013-12-22T08:09:32Z</time>
      </trkpt>
      <trkpt lat="50.01193" lon="2.19698">
        <ele>126.6</ele>
        <time>2013-12-22T08:09:46Z</time>
      </trkpt>
      <trkpt lat="50.01192" lon="2.19719">
        <ele>125.3</ele>
        <time>2013-12-22T08:10:04Z</time>
      </trkpt>
      <trkpt lat="50.01195" lon="2.19741">
        <ele>126.3</ele>
        <time>2013-12-22T08:10:14Z</time>
      </trkpt>
      <trkpt lat="50.01194" lon="2.19763">
        <ele>127.4</ele>
        <time>2013-12-22T08:10:24Z</time>
      </trkpt>
      <trkpt lat="50.01191" lon="2.19784">
        <ele>127.8</ele>
        <time>2013-12-22T08:10:32Z</time>
      </trkpt>
      <trkpt lat="50.01185" lon="2.19805">
        <ele>126.8</ele>
        <time>2013-12-22T08:10:41Z</time>
      </trkpt>
      <trkpt lat="50.01185" lon="2.19826">
        <ele>125.8</ele>
        <time>2013-12-22T08:10:51Z</time>
      </trkpt>
      <trkpt lat="50.01183" lon="2.19847">
        <ele>125</ele>
        <time>2013-12-22T08:10:58Z</time>
      </trkpt>
      <trkpt lat="50.01183" lon="2.19868">
        <ele>124.8</ele>
        <time>2013-12-22T08:11:06Z</time>
      </trkpt>
      <trkpt lat="50.01176" lon="2.19889">
        <ele>124.6</ele>
        <time>2013-12-22T08:11:18Z</time>
      </trkpt>
      <trkpt lat="50.01171" lon="2.19909">
        <ele>124.4</ele>
        <time>2013-12-22T08:11:30Z</time>
      </trkpt>
      <trkpt lat="50.01172" lon="2.19932">
        <ele>124.1</ele>
        <time>2013-12-22T08:11:42Z</time>
      </trkpt>
      <trkpt lat="50.01172" lon="2.19954">
        <ele>123.9</ele>
        <time>2013-12-22T08:11:52Z</time>
      </trkpt>
      <trkpt lat="50.01173" lon="2.19975">
        <ele>123.7</ele>
        <time>2013-12-22T08:12:02Z</time>
      </trkpt>
      <trkpt lat="50.01172" lon="2.19996">
        <ele>123.5</ele>
        <time>2013-12-22T08:12:11Z</time>
      </trkpt>
      <trkpt lat="50.01171" lon="2.20018">
        <ele>123.3</ele>
        <time>2013-12-22T08:12:20Z</time>
      </trkpt>
      <trkpt lat="50.0117" lon="2.2004">
        <ele>123.1</ele>
        <time>2013-12-22T08:12:32Z</time>
      </trkpt>
      <trkpt lat="50.01167" lon="2.20062">
        <ele>122.9</ele>
        <time>2013-12-22T08:12:44Z</time>
      </trkpt>
      <trkpt lat="50.01164" lon="2.20084">
        <ele>122.7</ele>
        <time>2013-12-22T08:12:53Z</time>
      </trkpt>
      <trkpt lat="50.01161" lon="2.20106">
        <ele>122.5</ele>
        <time>2013-12-22T08:13:04Z</time>
      </trkpt>
      <trkpt lat="50.01159" lon="2.20129">
        <ele>122.2</ele>
        <time>2013-12-22T08:13:16Z</time>
      </trkpt>
      <trkpt lat="50.01159" lon="2.20152">
        <ele>122</ele>
        <time>2013-12-22T08:13:25Z</time>
      </trkpt>
      <trkpt lat="50.01155" lon="2.20172">
        <ele>119</ele>
        <time>2013-12-22T08:13:35Z</time>
      </trkpt>
      <trkpt lat="50.01159" lon="2.20193">
        <ele>120</ele>
        <time>2013-12-22T08:13:45Z</time>
      </trkpt>
      <trkpt lat="50.01157" lon="2.20214">
        <ele>121.6</ele>
        <time>2013-12-22T08:13:54Z</time>
      </trkpt>
      <trkpt lat="50.01149" lon="2.20232">
        <ele>124.1</ele>
        <time>2013-12-22T08:14:05Z</time>
      </trkpt>
      <trkpt lat="50.01141" lon="2.2025">
        <ele>127.6</ele>
        <time>2013-12-22T08:14:20Z</time>
      </trkpt>
      <trkpt lat="50.0113" lon="2.20264">
        <ele>128.6</ele>
        <time>2013-12-22T08:14:31Z</time>
      </trkpt>
      <trkpt lat="50.0112" lon="2.2028">
        <ele>126.3</ele>
        <time>2013-12-22T08:14:40Z</time>
      </trkpt>
      <trkpt lat="50.01108" lon="2.20293">
        <ele>127.8</ele>
        <time>2013-12-22T08:14:49Z</time>
      </trkpt>
      <trkpt lat="50.01099" lon="2.20311">
        <ele>129</ele>
        <time>2013-12-22T08:14:59Z</time>
      </trkpt>
      <trkpt lat="50.01089" lon="2.20327">
        <ele>129</ele>
        <time>2013-12-22T08:15:07Z</time>
      </trkpt>
      <trkpt lat="50.01079" lon="2.20332">
        <ele>124.9</ele>
        <time>2013-12-22T08:15:17Z</time>
      </trkpt>
      <trkpt lat="50.01075" lon="2.2033">
        <ele>123.8</ele>
        <time>2013-12-22T08:15:21Z</time>
      </trkpt>
      <trkpt lat="50.0107" lon="2.20352">
        <ele>125.1</ele>
        <time>2013-12-22T08:15:27Z</time>
      </trkpt>
      <trkpt lat="50.01065" lon="2.20374">
        <ele>128.8</ele>
        <time>2013-12-22T08:15:32Z</time>
      </trkpt>
      <trkpt lat="50.01061" lon="2.20396">
        <ele>131.4</ele>
        <time>2013-12-22T08:15:36Z</time>
      </trkpt>
      <trkpt lat="50.01053" lon="2.20415">
        <ele>133.6</ele>
        <time>2013-12-22T08:15:46Z</time>
      </trkpt>
      <trkpt lat="50.01049" lon="2.20436">
        <ele>134.1</ele>
        <time>2013-12-22T08:16:00Z</time>
      </trkpt>
      <trkpt lat="50.01044" lon="2.20455">
        <ele>132.9</ele>
        <time>2013-12-22T08:16:10Z</time>
      </trkpt>
      <trkpt lat="50.01034" lon="2.20471">
        <ele>131.3</ele>
        <time>2013-12-22T08:16:22Z</time>
      </trkpt>
      <trkpt lat="50.01024" lon="2.20485">
        <ele>127.7</ele>
        <time>2013-12-22T08:16:31Z</time>
      </trkpt>
      <trkpt lat="50.01015" lon="2.20503">
        <ele>125</ele>
        <time>2013-12-22T08:16:41Z</time>
      </trkpt>
      <trkpt lat="50.01007" lon="2.20522">
        <ele>123.2</ele>
        <time>2013-12-22T08:16:49Z</time>
      </trkpt>
      <trkpt lat="50.01001" lon="2.20542">
        <ele>123.6</ele>
        <time>2013-12-22T08:17:01Z</time>
      </trkpt>
      <trkpt lat="50.00996" lon="2.20563">
        <ele>124.2</ele>
        <time>2013-12-22T08:17:11Z</time>
      </trkpt>
      <trkpt lat="50.00992" lon="2.20583">
        <ele>124.7</ele>
        <time>2013-12-22T08:17:20Z</time>
      </trkpt>
      <trkpt lat="50.00989" lon="2.20604">
        <ele>124.6</ele>
        <time>2013-12-22T08:17:29Z</time>
      </trkpt>
      <trkpt lat="50.00984" lon="2.20625">
        <ele>123.7</ele>
        <time>2013-12-22T08:17:40Z</time>
      </trkpt>
      <trkpt lat="50.00977" lon="2.20632">
        <ele>122.9</ele>
        <time>2013-12-22T08:17:49Z</time>
      </trkpt>
      <trkpt lat="50.00969" lon="2.20612">
        <ele>122.2</ele>
        <time>2013-12-22T08:18:01Z</time>
      </trkpt>
      <trkpt lat="50.00959" lon="2.20595">
        <ele>123.2</ele>
        <time>2013-12-22T08:18:11Z</time>
      </trkpt>
      <trkpt lat="50.00952" lon="2.20576">
        <ele>124.3</ele>
        <time>2013-12-22T08:18:21Z</time>
      </trkpt>
      <trkpt lat="50.00941" lon="2.2056">
        <ele>124.2</ele>
        <time>2013-12-22T08:18:31Z</time>
      </trkpt>
      <trkpt lat="50.00936" lon="2.2054">
        <ele>121.7</ele>
        <time>2013-12-22T08:18:41Z</time>
      </trkpt>
      <trkpt lat="50.00933" lon="2.20518">
        <ele>122.3</ele>
        <time>2013-12-22T08:18:56Z</time>
      </trkpt>
      <trkpt lat="50.0093" lon="2.20497">
        <ele>123.1</ele>
        <time>2013-12-22T08:19:04Z</time>
      </trkpt>
      <trkpt lat="50.00919" lon="2.20483">
        <ele>123.9</ele>
        <time>2013-12-22T08:19:11Z</time>
      </trkpt>
      <trkpt lat="50.00908" lon="2.20467">
        <ele>123.4</ele>
        <time>2013-12-22T08:19:20Z</time>
      </trkpt>
      <trkpt lat="50.00901" lon="2.20449">
        <ele>122.7</ele>
        <time>2013-12-22T08:19:31Z</time>
      </trkpt>
      <trkpt lat="50.00894" lon="2.20431">
        <ele>122</ele>
        <time>2013-12-22T08:19:41Z</time>
      </trkpt>
      <trkpt lat="50.00886" lon="2.20414">
        <ele>121.4</ele>
        <time>2013-12-22T08:19:50Z</time>
      </trkpt>
      <trkpt lat="50.00875" lon="2.20399">
        <ele>123.2</ele>
        <time>2013-12-22T08:20:04Z</time>
      </trkpt>
      <trkpt lat="50.00868" lon="2.20378">
        <ele>123.5</ele>
        <time>2013-12-22T08:20:12Z</time>
      </trkpt>
      <trkpt lat="50.00862" lon="2.20359">
        <ele>122.7</ele>
        <time>2013-12-22T08:20:19Z</time>
      </trkpt>
      <trkpt lat="50.00852" lon="2.20344">
        <ele>121.8</ele>
        <time>2013-12-22T08:20:28Z</time>
      </trkpt>
      <trkpt lat="50.00843" lon="2.20328">
        <ele>120.7</ele>
        <time>2013-12-22T08:20:38Z</time>
      </trkpt>
      <trkpt lat="50.00837" lon="2.20307">
        <ele>120.2</ele>
        <time>2013-12-22T08:20:48Z</time>
      </trkpt>
      <trkpt lat="50.00829" lon="2.20289">
        <ele>121</ele>
        <time>2013-12-22T08:20:58Z</time>
      </trkpt>
      <trkpt lat="50.00819" lon="2.20273">
        <ele>121.6</ele>
        <time>2013-12-22T08:21:07Z</time>
      </trkpt>
      <trkpt lat="50.00812" lon="2.20254">
        <ele>122.3</ele>
        <time>2013-12-22T08:21:16Z</time>
      </trkpt>
      <trkpt lat="50.00806" lon="2.20233">
        <ele>122.9</ele>
        <time>2013-12-22T08:21:24Z</time>
      </trkpt>
      <trkpt lat="50.00802" lon="2.20224">
        <ele>120</ele>
        <time>2013-12-22T08:21:39Z</time>
      </trkpt>
      <trkpt lat="50.00809" lon="2.20212">
        <ele>118.2</ele>
        <time>2013-12-22T08:21:47Z</time>
      </trkpt>
      <trkpt lat="50.00801" lon="2.20192">
        <ele>118.2</ele>
        <time>2013-12-22T08:21:54Z</time>
      </trkpt>
      <trkpt lat="50.00793" lon="2.20174">
        <ele>118.5</ele>
        <time>2013-12-22T08:22:01Z</time>
      </trkpt>
      <trkpt lat="50.00791" lon="2.20151">
        <ele>118.8</ele>
        <time>2013-12-22T08:22:10Z</time>
      </trkpt>
      <trkpt lat="50.00786" lon="2.2013">
        <ele>119</ele>
        <time>2013-12-22T08:22:17Z</time>
      </trkpt>
      <trkpt lat="50.00782" lon="2.2011">
        <ele>119.3</ele>
        <time>2013-12-22T08:22:24Z</time>
      </trkpt>
      <trkpt lat="50.00776" lon="2.20089">
        <ele>119.7</ele>
        <time>2013-12-22T08:22:37Z</time>
      </trkpt>
      <trkpt lat="50.00777" lon="2.20066">
        <ele>120.1</ele>
        <time>2013-12-22T08:22:48Z</time>
      </trkpt>
      <trkpt lat="50.00772" lon="2.20044">
        <ele>120.5</ele>
        <time>2013-12-22T08:22:59Z</time>
      </trkpt>
      <trkpt lat="50.00759" lon="2.20038">
        <ele>120.9</ele>
        <time>2013-12-22T08:23:09Z</time>
      </trkpt>
      <trkpt lat="50.00747" lon="2.20051">
        <ele>119.8</ele>
        <time>2013-12-22T08:23:17Z</time>
      </trkpt>
      <trkpt lat="50.00736" lon="2.20066">
        <ele>117.3</ele>
        <time>2013-12-22T08:23:27Z</time>
      </trkpt>
      <trkpt lat="50.00725" lon="2.20082">
        <ele>115.5</ele>
        <time>2013-12-22T08:23:37Z</time>
      </trkpt>
      <trkpt lat="50.00714" lon="2.20096">
        <ele>114.1</ele>
        <time>2013-12-22T08:23:44Z</time>
      </trkpt>
      <trkpt lat="50.00702" lon="2.20108">
        <ele>119.7</ele>
        <time>2013-12-22T08:23:53Z</time>
      </trkpt>
      <trkpt lat="50.0069" lon="2.20121">
        <ele>118.6</ele>
        <time>2013-12-22T08:24:04Z</time>
      </trkpt>
      <trkpt lat="50.00678" lon="2.20132">
        <ele>117.4</ele>
        <time>2013-12-22T08:24:15Z</time>
      </trkpt>
      <trkpt lat="50.00666" lon="2.20143">
        <ele>116.4</ele>
        <time>2013-12-22T08:24:25Z</time>
      </trkpt>
      <trkpt lat="50.00655" lon="2.20157">
        <ele>116.4</ele>
        <time>2013-12-22T08:24:33Z</time>
      </trkpt>
      <trkpt lat="50.00645" lon="2.20172">
        <ele>117.2</ele>
        <time>2013-12-22T08:24:40Z</time>
      </trkpt>
      <trkpt lat="50.00632" lon="2.20184">
        <ele>118.7</ele>
        <time>2013-12-22T08:24:54Z</time>
      </trkpt>
      <trkpt lat="50.00622" lon="2.20199">
        <ele>118.6</ele>
        <time>2013-12-22T08:25:03Z</time>
      </trkpt>
      <trkpt lat="50.00608" lon="2.20202">
        <ele>117.8</ele>
        <time>2013-12-22T08:25:17Z</time>
      </trkpt>
      <trkpt lat="50.00597" lon="2.20216">
        <ele>117.2</ele>
        <time>2013-12-22T08:25:27Z</time>
      </trkpt>
      <trkpt lat="50.00586" lon="2.20229">
        <ele>116.8</ele>
        <time>2013-12-22T08:25:34Z</time>
      </trkpt>
      <trkpt lat="50.00576" lon="2.20244">
        <ele>116.3</ele>
        <time>2013-12-22T08:25:43Z</time>
      </trkpt>
      <trkpt lat="50.00566" lon="2.20261">
        <ele>116.5</ele>
        <time>2013-12-22T08:25:51Z</time>
      </trkpt>
      <trkpt lat="50.00555" lon="2.20274">
        <ele>118.3</ele>
        <time>2013-12-22T08:26:02Z</time>
      </trkpt>
      <trkpt lat="50.00548" lon="2.2029">
        <ele>118.4</ele>
        <time>2013-12-22T08:26:07Z</time>
      </trkpt>
      <trkpt lat="50.00535" lon="2.20287">
        <ele>115.5</ele>
        <time>2013-12-22T08:26:19Z</time>
      </trkpt>
      <trkpt lat="50.00527" lon="2.20308">
        <ele>115.2</ele>
        <time>2013-12-22T08:26:25Z</time>
      </trkpt>
      <trkpt lat="50.00512" lon="2.20307">
        <ele>114.4</ele>
        <time>2013-12-22T08:26:37Z</time>
      </trkpt>
      <trkpt lat="50.00496" lon="2.2032">
        <ele>113.9</ele>
        <time>2013-12-22T08:26:46Z</time>
      </trkpt>
      <trkpt lat="50.00481" lon="2.20319">
        <ele>113.2</ele>
        <time>2013-12-22T08:26:57Z</time>
      </trkpt>
      <trkpt lat="50.00467" lon="2.2032">
        <ele>113.7</ele>
        <time>2013-12-22T08:27:05Z</time>
      </trkpt>
      <trkpt lat="50.00454" lon="2.20328">
        <ele>115.2</ele>
        <time>2013-12-22T08:27:13Z</time>
      </trkpt>
      <trkpt lat="50.00442" lon="2.20341">
        <ele>113.7</ele>
        <time>2013-12-22T08:27:23Z</time>
      </trkpt>
      <trkpt lat="50.00429" lon="2.20347">
        <ele>109.4</ele>
        <time>2013-12-22T08:27:34Z</time>
      </trkpt>
      <trkpt lat="50.00415" lon="2.20354">
        <ele>107.5</ele>
        <time>2013-12-22T08:27:45Z</time>
      </trkpt>
      <trkpt lat="50.00401" lon="2.20362">
        <ele>108.8</ele>
        <time>2013-12-22T08:27:56Z</time>
      </trkpt>
      <trkpt lat="50.00388" lon="2.20369">
        <ele>108.9</ele>
        <time>2013-12-22T08:28:04Z</time>
      </trkpt>
      <trkpt lat="50.00374" lon="2.20373">
        <ele>108.8</ele>
        <time>2013-12-22T08:28:15Z</time>
      </trkpt>
      <trkpt lat="50.00359" lon="2.2038">
        <ele>108.6</ele>
        <time>2013-12-22T08:28:25Z</time>
      </trkpt>
      <trkpt lat="50.00346" lon="2.2039">
        <ele>108.5</ele>
        <time>2013-12-22T08:28:34Z</time>
      </trkpt>
      <trkpt lat="50.00332" lon="2.20395">
        <ele>108.3</ele>
        <time>2013-12-22T08:28:47Z</time>
      </trkpt>
      <trkpt lat="50.00323" lon="2.2041">
        <ele>108.2</ele>
        <time>2013-12-22T08:28:56Z</time>
      </trkpt>
      <trkpt lat="50.00313" lon="2.20428">
        <ele>108.1</ele>
        <time>2013-12-22T08:29:05Z</time>
      </trkpt>
      <trkpt lat="50.00301" lon="2.2044">
        <ele>107.9</ele>
        <time>2013-12-22T08:29:16Z</time>
      </trkpt>
      <trkpt lat="50.0029" lon="2.20452">
        <ele>107.7</ele>
        <time>2013-12-22T08:29:28Z</time>
      </trkpt>
      <trkpt lat="50.00281" lon="2.2047">
        <ele>107.6</ele>
        <time>2013-12-22T08:29:39Z</time>
      </trkpt>
      <trkpt lat="50.00271" lon="2.20486">
        <ele>107.5</ele>
        <time>2013-12-22T08:29:47Z</time>
      </trkpt>
      <trkpt lat="50.00261" lon="2.20502">
        <ele>107.4</ele>
        <time>2013-12-22T08:29:55Z</time>
      </trkpt>
      <trkpt lat="50.00253" lon="2.20519">
        <ele>107.2</ele>
        <time>2013-12-22T08:30:04Z</time>
      </trkpt>
      <trkpt lat="50.00243" lon="2.20535">
        <ele>107.1</ele>
        <time>2013-12-22T08:30:14Z</time>
      </trkpt>
      <trkpt lat="50.00232" lon="2.20548">
        <ele>106.9</ele>
        <time>2013-12-22T08:30:26Z</time>
      </trkpt>
      <trkpt lat="50.00222" lon="2.20565">
        <ele>106.8</ele>
        <time>2013-12-22T08:30:37Z</time>
      </trkpt>
      <trkpt lat="50.00211" lon="2.2058">
        <ele>106.6</ele>
        <time>2013-12-22T08:30:48Z</time>
      </trkpt>
      <trkpt lat="50.00203" lon="2.20599">
        <ele>106.5</ele>
        <time>2013-12-22T08:30:57Z</time>
      </trkpt>
      <trkpt lat="50.00196" lon="2.20617">
        <ele>106.4</ele>
        <time>2013-12-22T08:31:04Z</time>
      </trkpt>
      <trkpt lat="50.00187" lon="2.20636">
        <ele>106.3</ele>
        <time>2013-12-22T08:31:11Z</time>
      </trkpt>
      <trkpt lat="50.00177" lon="2.20652">
        <ele>106.2</ele>
        <time>2013-12-22T08:31:20Z</time>
      </trkpt>
      <trkpt lat="50.00167" lon="2.20669">
        <ele>106.1</ele>
        <time>2013-12-22T08:31:29Z</time>
      </trkpt>
      <trkpt lat="50.00156" lon="2.20684">
        <ele>105.3</ele>
        <time>2013-12-22T08:31:38Z</time>
      </trkpt>
      <trkpt lat="50.00147" lon="2.20694">
        <ele>104.4</ele>
        <time>2013-12-22T08:31:45Z</time>
      </trkpt>
      <trkpt lat="50.00134" lon="2.20685">
        <ele>103.3</ele>
        <time>2013-12-22T08:31:54Z</time>
      </trkpt>
      <trkpt lat="50.00123" lon="2.20672">
        <ele>95.5</ele>
        <time>2013-12-22T08:32:06Z</time>
      </trkpt>
      <trkpt lat="50.00113" lon="2.20659">
        <ele>94.1</ele>
        <time>2013-12-22T08:32:18Z</time>
      </trkpt>
      <trkpt lat="50.00103" lon="2.20643">
        <ele>93.2</ele>
        <time>2013-12-22T08:32:25Z</time>
      </trkpt>
      <trkpt lat="50.0009" lon="2.20631">
        <ele>92.3</ele>
        <time>2013-12-22T08:32:33Z</time>
      </trkpt>
      <trkpt lat="50.00083" lon="2.20612">
        <ele>93.3</ele>
        <time>2013-12-22T08:32:44Z</time>
      </trkpt>
      <trkpt lat="50.00085" lon="2.2059">
        <ele>94.7</ele>
        <time>2013-12-22T08:32:54Z</time>
      </trkpt>
      <trkpt lat="50.00087" lon="2.20567">
        <ele>96.1</ele>
        <time>2013-12-22T08:33:03Z</time>
      </trkpt>
      <trkpt lat="50.00091" lon="2.20546">
        <ele>97.2</ele>
        <time>2013-12-22T08:33:11Z</time>
      </trkpt>
      <trkpt lat="50.00092" lon="2.20524">
        <ele>98.3</ele>
        <time>2013-12-22T08:33:20Z</time>
      </trkpt>
      <trkpt lat="50.00094" lon="2.20502">
        <ele>99.3</ele>
        <time>2013-12-22T08:33:30Z</time>
      </trkpt>
      <trkpt lat="50.00094" lon="2.2048">
        <ele>99.9</ele>
        <time>2013-12-22T08:33:40Z</time>
      </trkpt>
      <trkpt lat="50.00099" lon="2.20461">
        <ele>100.5</ele>
        <time>2013-12-22T08:33:50Z</time>
      </trkpt>
      <trkpt lat="50.00103" lon="2.20439">
        <ele>100.9</ele>
        <time>2013-12-22T08:33:57Z</time>
      </trkpt>
      <trkpt lat="50.00103" lon="2.20416">
        <ele>101.6</ele>
        <time>2013-12-22T08:34:08Z</time>
      </trkpt>
      <trkpt lat="50.00103" lon="2.20394">
        <ele>102.4</ele>
        <time>2013-12-22T08:34:18Z</time>
      </trkpt>
      <trkpt lat="50.00107" lon="2.20374">
        <ele>104</ele>
        <time>2013-12-22T08:34:29Z</time>
      </trkpt>
      <trkpt lat="50.0011" lon="2.20354">
        <ele>105</ele>
        <time>2013-12-22T08:34:37Z</time>
      </trkpt>
      <trkpt lat="50.00113" lon="2.20333">
        <ele>104.7</ele>
        <time>2013-12-22T08:34:45Z</time>
      </trkpt>
      <trkpt lat="50.00121" lon="2.20315">
        <ele>104.5</ele>
        <time>2013-12-22T08:34:54Z</time>
      </trkpt>
      <trkpt lat="50.00113" lon="2.20296">
        <ele>104.2</ele>
        <time>2013-12-22T08:35:04Z</time>
      </trkpt>
      <trkpt lat="50.0011" lon="2.20275">
        <ele>103.9</ele>
        <time>2013-12-22T08:35:14Z</time>
      </trkpt>
      <trkpt lat="50.00105" lon="2.20255">
        <ele>103.7</ele>
        <time>2013-12-22T08:35:21Z</time>
      </trkpt>
      <trkpt lat="50.00098" lon="2.20234">
        <ele>103.5</ele>
        <time>2013-12-22T08:35:27Z</time>
      </trkpt>
      <trkpt lat="50.00095" lon="2.20213">
        <ele>103.3</ele>
        <time>2013-12-22T08:35:36Z</time>
      </trkpt>
      <trkpt lat="50.00089" lon="2.20192">
        <ele>102.8</ele>
        <time>2013-12-22T08:35:51Z</time>
      </trkpt>
      <trkpt lat="50.00078" lon="2.20175">
        <ele>102.6</ele>
        <time>2013-12-22T08:35:59Z</time>
      </trkpt>
      <trkpt lat="50.0007" lon="2.20157">
        <ele>102.4</ele>
        <time>2013-12-22T08:36:08Z</time>
      </trkpt>
      <trkpt lat="50.00061" lon="2.2014">
        <ele>102.2</ele>
        <time>2013-12-22T08:36:14Z</time>
      </trkpt>
      <trkpt lat="50.00059" lon="2.20117">
        <ele>101.8</ele>
        <time>2013-12-22T08:36:28Z</time>
      </trkpt>
      <trkpt lat="50.00051" lon="2.20097">
        <ele>101.5</ele>
        <time>2013-12-22T08:36:38Z</time>
      </trkpt>
      <trkpt lat="50.00045" lon="2.20076">
        <ele>101.2</ele>
        <time>2013-12-22T08:36:47Z</time>
      </trkpt>
      <trkpt lat="50.0004" lon="2.20054">
        <ele>101</ele>
        <time>2013-12-22T08:36:55Z</time>
      </trkpt>
      <trkpt lat="50.00034" lon="2.20035">
        <ele>106.5</ele>
        <time>2013-12-22T08:37:06Z</time>
      </trkpt>
      <trkpt lat="50.00025" lon="2.20018">
        <ele>108.5</ele>
        <time>2013-12-22T08:37:13Z</time>
      </trkpt>
      <trkpt lat="50.00021" lon="2.19997">
        <ele>106.1</ele>
        <time>2013-12-22T08:37:24Z</time>
      </trkpt>
      <trkpt lat="50.00018" lon="2.19977">
        <ele>106.7</ele>
        <time>2013-12-22T08:37:33Z</time>
      </trkpt>
      <trkpt lat="50.00008" lon="2.19959">
        <ele>107.3</ele>
        <time>2013-12-22T08:37:42Z</time>
      </trkpt>
      <trkpt lat="50.00001" lon="2.19941">
        <ele>107.8</ele>
        <time>2013-12-22T08:37:50Z</time>
      </trkpt>
      <trkpt lat="49.99993" lon="2.19923">
        <ele>108.5</ele>
        <time>2013-12-22T08:38:02Z</time>
      </trkpt>
      <trkpt lat="49.99982" lon="2.1991">
        <ele>108.9</ele>
        <time>2013-12-22T08:38:09Z</time>
      </trkpt>
      <trkpt lat="49.99974" lon="2.19891">
        <ele>109.9</ele>
        <time>2013-12-22T08:38:19Z</time>
      </trkpt>
      <trkpt lat="49.99969" lon="2.1987">
        <ele>110.7</ele>
        <time>2013-12-22T08:38:27Z</time>
      </trkpt>
      <trkpt lat="49.9996" lon="2.19851">
        <ele>112</ele>
        <time>2013-12-22T08:38:39Z</time>
      </trkpt>
      <trkpt lat="49.99948" lon="2.19837">
        <ele>113.6</ele>
        <time>2013-12-22T08:38:48Z</time>
      </trkpt>
      <trkpt lat="49.99942" lon="2.19818">
        <ele>114.8</ele>
        <time>2013-12-22T08:38:55Z</time>
      </trkpt>
      <trkpt lat="49.99935" lon="2.19798">
        <ele>114.2</ele>
        <time>2013-12-22T08:39:01Z</time>
      </trkpt>
      <trkpt lat="49.9993" lon="2.19818">
        <ele>108</ele>
        <time>2013-12-22T08:39:15Z</time>
      </trkpt>
      <trkpt lat="49.99917" lon="2.19827">
        <ele>102</ele>
        <time>2013-12-22T08:39:25Z</time>
      </trkpt>
      <trkpt lat="49.99905" lon="2.19836">
        <ele>102</ele>
        <time>2013-12-22T08:39:35Z</time>
      </trkpt>
      <trkpt lat="49.99894" lon="2.1985">
        <ele>97.6</ele>
        <time>2013-12-22T08:39:44Z</time>
      </trkpt>
      <trkpt lat="49.99881" lon="2.19862">
        <ele>96</ele>
        <time>2013-12-22T08:39:56Z</time>
      </trkpt>
      <trkpt lat="49.99868" lon="2.19868">
        <ele>96</ele>
        <time>2013-12-22T08:40:06Z</time>
      </trkpt>
      <trkpt lat="49.99856" lon="2.19881">
        <ele>96</ele>
        <time>2013-12-22T08:40:12Z</time>
      </trkpt>
      <trkpt lat="49.99843" lon="2.19887">
        <ele>96.4</ele>
        <time>2013-12-22T08:40:23Z</time>
      </trkpt>
      <trkpt lat="49.99831" lon="2.19898">
        <ele>94</ele>
        <time>2013-12-22T08:40:31Z</time>
      </trkpt>
      <trkpt lat="49.99818" lon="2.19909">
        <ele>94</ele>
        <time>2013-12-22T08:40:44Z</time>
      </trkpt>
      <trkpt lat="49.99805" lon="2.1992">
        <ele>93.3</ele>
        <time>2013-12-22T08:40:53Z</time>
      </trkpt>
      <trkpt lat="49.99791" lon="2.19927">
        <ele>92.2</ele>
        <time>2013-12-22T08:41:01Z</time>
      </trkpt>
      <trkpt lat="49.99777" lon="2.19937">
        <ele>90.8</ele>
        <time>2013-12-22T08:41:11Z</time>
      </trkpt>
      <trkpt lat="49.99765" lon="2.19947">
        <ele>89.7</ele>
        <time>2013-12-22T08:41:21Z</time>
      </trkpt>
      <trkpt lat="49.99752" lon="2.19958">
        <ele>88.6</ele>
        <time>2013-12-22T08:41:31Z</time>
      </trkpt>
      <trkpt lat="49.99756" lon="2.19952">
        <ele>88</ele>
        <time>2013-12-22T08:41:40Z</time>
      </trkpt>
      <trkpt lat="49.99742" lon="2.19962">
        <ele>88</ele>
        <time>2013-12-22T08:41:48Z</time>
      </trkpt>
      <trkpt lat="49.99731" lon="2.19976">
        <ele>87.7</ele>
        <time>2013-12-22T08:41:54Z</time>
      </trkpt>
      <trkpt lat="49.99719" lon="2.19986">
        <ele>85.9</ele>
        <time>2013-12-22T08:42:01Z</time>
      </trkpt>
      <trkpt lat="49.99706" lon="2.1999">
        <ele>85.3</ele>
        <time>2013-12-22T08:42:08Z</time>
      </trkpt>
      <trkpt lat="49.99693" lon="2.19999">
        <ele>84.8</ele>
        <time>2013-12-22T08:42:15Z</time>
      </trkpt>
      <trkpt lat="49.99681" lon="2.2001">
        <ele>84.1</ele>
        <time>2013-12-22T08:42:25Z</time>
      </trkpt>
      <trkpt lat="49.99668" lon="2.20022">
        <ele>82.9</ele>
        <time>2013-12-22T08:42:33Z</time>
      </trkpt>
      <trkpt lat="49.99655" lon="2.20032">
        <ele>82.3</ele>
        <time>2013-12-22T08:42:43Z</time>
      </trkpt>
      <trkpt lat="49.99641" lon="2.20039">
        <ele>81.8</ele>
        <time>2013-12-22T08:42:53Z</time>
      </trkpt>
      <trkpt lat="49.99629" lon="2.20046">
        <ele>81.2</ele>
        <time>2013-12-22T08:43:04Z</time>
      </trkpt>
      <trkpt lat="49.99615" lon="2.20054">
        <ele>80.7</ele>
        <time>2013-12-22T08:43:14Z</time>
      </trkpt>
      <trkpt lat="49.99602" lon="2.20065">
        <ele>80.1</ele>
        <time>2013-12-22T08:43:24Z</time>
      </trkpt>
      <trkpt lat="49.99589" lon="2.20075">
        <ele>79.2</ele>
        <time>2013-12-22T08:43:34Z</time>
      </trkpt>
      <trkpt lat="49.99577" lon="2.20087">
        <ele>78.1</ele>
        <time>2013-12-22T08:43:46Z</time>
      </trkpt>
      <trkpt lat="49.99562" lon="2.20091">
        <ele>77.1</ele>
        <time>2013-12-22T08:43:57Z</time>
      </trkpt>
      <trkpt lat="49.99549" lon="2.20103">
        <ele>76.1</ele>
        <time>2013-12-22T08:44:06Z</time>
      </trkpt>
      <trkpt lat="49.99536" lon="2.20116">
        <ele>75.2</ele>
        <time>2013-12-22T08:44:13Z</time>
      </trkpt>
      <trkpt lat="49.99523" lon="2.20128">
        <ele>74.7</ele>
        <time>2013-12-22T08:44:26Z</time>
      </trkpt>
      <trkpt lat="49.99511" lon="2.20142">
        <ele>74.2</ele>
        <time>2013-12-22T08:44:33Z</time>
      </trkpt>
      <trkpt lat="49.99499" lon="2.20155">
        <ele>73.7</ele>
        <time>2013-12-22T08:44:42Z</time>
      </trkpt>
      <trkpt lat="49.99485" lon="2.20165">
        <ele>72.6</ele>
        <time>2013-12-22T08:44:59Z</time>
      </trkpt>
      <trkpt lat="49.99472" lon="2.20176">
        <ele>72</ele>
        <time>2013-12-22T08:45:08Z</time>
      </trkpt>
      <trkpt lat="49.99459" lon="2.20183">
        <ele>71.5</ele>
        <time>2013-12-22T08:45:17Z</time>
      </trkpt>
      <trkpt lat="49.99445" lon="2.20192">
        <ele>70.9</ele>
        <time>2013-12-22T08:45:27Z</time>
      </trkpt>
      <trkpt lat="49.99436" lon="2.20208">
        <ele>70.3</ele>
        <time>2013-12-22T08:45:36Z</time>
      </trkpt>
      <trkpt lat="49.99428" lon="2.20219">
        <ele>70.4</ele>
        <time>2013-12-22T08:45:50Z</time>
      </trkpt>
      <trkpt lat="49.99415" lon="2.20211">
        <ele>70.8</ele>
        <time>2013-12-22T08:46:01Z</time>
      </trkpt>
      <trkpt lat="49.99401" lon="2.20217">
        <ele>71.1</ele>
        <time>2013-12-22T08:46:10Z</time>
      </trkpt>
      <trkpt lat="49.99391" lon="2.20232">
        <ele>71.5</ele>
        <time>2013-12-22T08:46:18Z</time>
      </trkpt>
      <trkpt lat="49.99379" lon="2.20244">
        <ele>71.8</ele>
        <time>2013-12-22T08:46:27Z</time>
      </trkpt>
      <trkpt lat="49.99364" lon="2.20246">
        <ele>72.2</ele>
        <time>2013-12-22T08:46:37Z</time>
      </trkpt>
      <trkpt lat="49.9935" lon="2.20245">
        <ele>72.5</ele>
        <time>2013-12-22T08:46:45Z</time>
      </trkpt>
      <trkpt lat="49.99336" lon="2.20244">
        <ele>72.8</ele>
        <time>2013-12-22T08:46:52Z</time>
      </trkpt>
      <trkpt lat="49.99322" lon="2.20239">
        <ele>74.5</ele>
        <time>2013-12-22T08:47:00Z</time>
      </trkpt>
      <trkpt lat="49.99308" lon="2.20237">
        <ele>77</ele>
        <time>2013-12-22T08:47:08Z</time>
      </trkpt>
      <trkpt lat="49.99293" lon="2.20231">
        <ele>80</ele>
        <time>2013-12-22T08:47:19Z</time>
      </trkpt>
      <trkpt lat="49.99282" lon="2.20219">
        <ele>81.4</ele>
        <time>2013-12-22T08:47:32Z</time>
      </trkpt>
      <trkpt lat="49.99267" lon="2.20219">
        <ele>82.2</ele>
        <time>2013-12-22T08:47:40Z</time>
      </trkpt>
      <trkpt lat="49.99254" lon="2.20211">
        <ele>82.9</ele>
        <time>2013-12-22T08:47:47Z</time>
      </trkpt>
      <trkpt lat="49.99241" lon="2.20204">
        <ele>83.8</ele>
        <time>2013-12-22T08:47:55Z</time>
      </trkpt>
      <trkpt lat="49.99227" lon="2.20209">
        <ele>84</ele>
        <time>2013-12-22T08:48:03Z</time>
      </trkpt>
      <trkpt lat="49.99212" lon="2.20213">
        <ele>84.7</ele>
        <time>2013-12-22T08:48:09Z</time>
      </trkpt>
      <trkpt lat="49.99199" lon="2.20218">
        <ele>86</ele>
        <time>2013-12-22T08:48:18Z</time>
      </trkpt>
      <trkpt lat="49.99187" lon="2.2023">
        <ele>88</ele>
        <time>2013-12-22T08:48:30Z</time>
      </trkpt>
      <trkpt lat="49.99181" lon="2.2024">
        <ele>89.3</ele>
        <time>2013-12-22T08:48:38Z</time>
      </trkpt>
      <trkpt lat="49.99168" lon="2.20232">
        <ele>91.2</ele>
        <time>2013-12-22T08:48:49Z</time>
      </trkpt>
      <trkpt lat="49.99156" lon="2.20243">
        <ele>93.1</ele>
        <time>2013-12-22T08:48:58Z</time>
      </trkpt>
      <trkpt lat="49.99145" lon="2.20255">
        <ele>94.8</ele>
        <time>2013-12-22T08:49:06Z</time>
      </trkpt>
      <trkpt lat="49.99133" lon="2.20267">
        <ele>92.7</ele>
        <time>2013-12-22T08:49:18Z</time>
      </trkpt>
      <trkpt lat="49.99121" lon="2.2028">
        <ele>93.3</ele>
        <time>2013-12-22T08:49:26Z</time>
      </trkpt>
      <trkpt lat="49.9911" lon="2.20294">
        <ele>95.2</ele>
        <time>2013-12-22T08:49:36Z</time>
      </trkpt>
      <trkpt lat="49.991" lon="2.2031">
        <ele>96.6</ele>
        <time>2013-12-22T08:49:48Z</time>
      </trkpt>
      <trkpt lat="49.9909" lon="2.20324">
        <ele>97.7</ele>
        <time>2013-12-22T08:49:58Z</time>
      </trkpt>
      <trkpt lat="49.9908" lon="2.20341">
        <ele>98.5</ele>
        <time>2013-12-22T08:50:05Z</time>
      </trkpt>
      <trkpt lat="49.99071" lon="2.20357">
        <ele>99.7</ele>
        <time>2013-12-22T08:50:15Z</time>
      </trkpt>
      <trkpt lat="49.9906" lon="2.20369">
        <ele>100.7</ele>
        <time>2013-12-22T08:50:22Z</time>
      </trkpt>
      <trkpt lat="49.9905" lon="2.20384">
        <ele>101.7</ele>
        <time>2013-12-22T08:50:32Z</time>
      </trkpt>
      <trkpt lat="49.99039" lon="2.20398">
        <ele>101</ele>
        <time>2013-12-22T08:50:40Z</time>
      </trkpt>
      <trkpt lat="49.99027" lon="2.20412">
        <ele>102.1</ele>
        <time>2013-12-22T08:50:50Z</time>
      </trkpt>
      <trkpt lat="49.99015" lon="2.20422">
        <ele>103</ele>
        <time>2013-12-22T08:50:59Z</time>
      </trkpt>
      <trkpt lat="49.98986" lon="2.20455">
        <ele>97.1</ele>
        <time>2013-12-22T08:51:17Z</time>
      </trkpt>
      <trkpt lat="49.98986" lon="2.20455">
        <ele>97.1</ele>
        <time>2013-12-22T08:56:47Z</time>
      </trkpt>
      <trkpt lat="49.98969" lon="2.20477">
        <ele>89.8</ele>
        <time>2013-12-22T08:56:59Z</time>
      </trkpt>
      <trkpt lat="49.9895" lon="2.20496">
        <ele>89.3</ele>
        <time>2013-12-22T08:57:11Z</time>
      </trkpt>
      <trkpt lat="49.9895" lon="2.20496">
        <ele>89.3</ele>
        <time>2013-12-22T08:58:40Z</time>
      </trkpt>
      <trkpt lat="49.98946" lon="2.2051">
        <ele>88.8</ele>
        <time>2013-12-22T08:58:41Z</time>
      </trkpt>
      <trkpt lat="49.98934" lon="2.20522">
        <ele>88.5</ele>
        <time>2013-12-22T08:58:50Z</time>
      </trkpt>
      <trkpt lat="49.98923" lon="2.20538">
        <ele>88.1</ele>
        <time>2013-12-22T08:59:00Z</time>
      </trkpt>
      <trkpt lat="49.98914" lon="2.20553">
        <ele>87.7</ele>
        <time>2013-12-22T08:59:10Z</time>
      </trkpt>
      <trkpt lat="49.98902" lon="2.20566">
        <ele>87.4</ele>
        <time>2013-12-22T08:59:18Z</time>
      </trkpt>
      <trkpt lat="49.98892" lon="2.20581">
        <ele>87.2</ele>
        <time>2013-12-22T08:59:25Z</time>
      </trkpt>
      <trkpt lat="49.98881" lon="2.20595">
        <ele>85</ele>
        <time>2013-12-22T08:59:38Z</time>
      </trkpt>
      <trkpt lat="49.98868" lon="2.20603">
        <ele>82.2</ele>
        <time>2013-12-22T08:59:49Z</time>
      </trkpt>
      <trkpt lat="49.98858" lon="2.20621">
        <ele>78.8</ele>
        <time>2013-12-22T08:59:59Z</time>
      </trkpt>
      <trkpt lat="49.98849" lon="2.20639">
        <ele>82</ele>
        <time>2013-12-22T09:00:06Z</time>
      </trkpt>
      <trkpt lat="49.98841" lon="2.20657">
        <ele>79.7</ele>
        <time>2013-12-22T09:00:14Z</time>
      </trkpt>
      <trkpt lat="49.98831" lon="2.20674">
        <ele>78.2</ele>
        <time>2013-12-22T09:00:23Z</time>
      </trkpt>
      <trkpt lat="49.98824" lon="2.20693">
        <ele>75.5</ele>
        <time>2013-12-22T09:00:33Z</time>
      </trkpt>
      <trkpt lat="49.98812" lon="2.20703">
        <ele>71.1</ele>
        <time>2013-12-22T09:00:48Z</time>
      </trkpt>
      <trkpt lat="49.98807" lon="2.20726">
        <ele>71.6</ele>
        <time>2013-12-22T09:00:57Z</time>
      </trkpt>
      <trkpt lat="49.98803" lon="2.20749">
        <ele>72</ele>
        <time>2013-12-22T09:01:04Z</time>
      </trkpt>
      <trkpt lat="49.988" lon="2.20772">
        <ele>71.8</ele>
        <time>2013-12-22T09:01:11Z</time>
      </trkpt>
      <trkpt lat="49.98797" lon="2.20793">
        <ele>71.3</ele>
        <time>2013-12-22T09:01:19Z</time>
      </trkpt>
      <trkpt lat="49.98789" lon="2.20813">
        <ele>70</ele>
        <time>2013-12-22T09:01:30Z</time>
      </trkpt>
      <trkpt lat="49.98784" lon="2.20832">
        <ele>68.4</ele>
        <time>2013-12-22T09:01:38Z</time>
      </trkpt>
      <trkpt lat="49.98781" lon="2.20854">
        <ele>68.3</ele>
        <time>2013-12-22T09:01:47Z</time>
      </trkpt>
      <trkpt lat="49.9878" lon="2.20878">
        <ele>68.6</ele>
        <time>2013-12-22T09:01:55Z</time>
      </trkpt>
      <trkpt lat="49.98781" lon="2.209">
        <ele>69</ele>
        <time>2013-12-22T09:02:03Z</time>
      </trkpt>
      <trkpt lat="49.98782" lon="2.20921">
        <ele>69.4</ele>
        <time>2013-12-22T09:02:12Z</time>
      </trkpt>
      <trkpt lat="49.98786" lon="2.20942">
        <ele>69.8</ele>
        <time>2013-12-22T09:02:23Z</time>
      </trkpt>
      <trkpt lat="49.98795" lon="2.20959">
        <ele>70.2</ele>
        <time>2013-12-22T09:02:33Z</time>
      </trkpt>
      <trkpt lat="49.98803" lon="2.20978">
        <ele>70.6</ele>
        <time>2013-12-22T09:02:42Z</time>
      </trkpt>
      <trkpt lat="49.98808" lon="2.20999">
        <ele>71</ele>
        <time>2013-12-22T09:02:51Z</time>
      </trkpt>
      <trkpt lat="49.98816" lon="2.21017">
        <ele>70.3</ele>
        <time>2013-12-22T09:03:01Z</time>
      </trkpt>
      <trkpt lat="49.98822" lon="2.21037">
        <ele>69.6</ele>
        <time>2013-12-22T09:03:10Z</time>
      </trkpt>
      <trkpt lat="49.9883" lon="2.21055">
        <ele>69</ele>
        <time>2013-12-22T09:03:19Z</time>
      </trkpt>
      <trkpt lat="49.9884" lon="2.21074">
        <ele>68.2</ele>
        <time>2013-12-22T09:03:29Z</time>
      </trkpt>
      <trkpt lat="49.98848" lon="2.21091">
        <ele>67.7</ele>
        <time>2013-12-22T09:03:37Z</time>
      </trkpt>
      <trkpt lat="49.98854" lon="2.21112">
        <ele>67.1</ele>
        <time>2013-12-22T09:03:47Z</time>
      </trkpt>
      <trkpt lat="49.98858" lon="2.21133">
        <ele>67.9</ele>
        <time>2013-12-22T09:03:58Z</time>
      </trkpt>
      <trkpt lat="49.98865" lon="2.21151">
        <ele>68.7</ele>
        <time>2013-12-22T09:04:08Z</time>
      </trkpt>
      <trkpt lat="49.98874" lon="2.21168">
        <ele>69.5</ele>
        <time>2013-12-22T09:04:18Z</time>
      </trkpt>
      <trkpt lat="49.98881" lon="2.21186">
        <ele>69.9</ele>
        <time>2013-12-22T09:04:27Z</time>
      </trkpt>
      <trkpt lat="49.98888" lon="2.21206">
        <ele>69.6</ele>
        <time>2013-12-22T09:04:37Z</time>
      </trkpt>
      <trkpt lat="49.98894" lon="2.21227">
        <ele>69.2</ele>
        <time>2013-12-22T09:04:47Z</time>
      </trkpt>
      <trkpt lat="49.98901" lon="2.21245">
        <ele>69</ele>
        <time>2013-12-22T09:04:55Z</time>
      </trkpt>
      <trkpt lat="49.98907" lon="2.21265">
        <ele>68.6</ele>
        <time>2013-12-22T09:05:05Z</time>
      </trkpt>
      <trkpt lat="49.98914" lon="2.21285">
        <ele>68.3</ele>
        <time>2013-12-22T09:05:15Z</time>
      </trkpt>
      <trkpt lat="49.98922" lon="2.21303">
        <ele>67.9</ele>
        <time>2013-12-22T09:05:25Z</time>
      </trkpt>
      <trkpt lat="49.98932" lon="2.2132">
        <ele>67.7</ele>
        <time>2013-12-22T09:05:33Z</time>
      </trkpt>
      <trkpt lat="49.98938" lon="2.21341">
        <ele>67.3</ele>
        <time>2013-12-22T09:05:43Z</time>
      </trkpt>
      <trkpt lat="49.98945" lon="2.21362">
        <ele>67.6</ele>
        <time>2013-12-22T09:05:54Z</time>
      </trkpt>
      <trkpt lat="49.98952" lon="2.2138">
        <ele>70.3</ele>
        <time>2013-12-22T09:06:02Z</time>
      </trkpt>
      <trkpt lat="49.98959" lon="2.21399">
        <ele>71.1</ele>
        <time>2013-12-22T09:06:12Z</time>
      </trkpt>
      <trkpt lat="49.98965" lon="2.2142">
        <ele>71.9</ele>
        <time>2013-12-22T09:06:22Z</time>
      </trkpt>
      <trkpt lat="49.98973" lon="2.21438">
        <ele>72.7</ele>
        <time>2013-12-22T09:06:32Z</time>
      </trkpt>
      <trkpt lat="49.98979" lon="2.21457">
        <ele>73.3</ele>
        <time>2013-12-22T09:06:40Z</time>
      </trkpt>
      <trkpt lat="49.98987" lon="2.21476">
        <ele>73.9</ele>
        <time>2013-12-22T09:06:48Z</time>
      </trkpt>
      <trkpt lat="49.98992" lon="2.21496">
        <ele>74.7</ele>
        <time>2013-12-22T09:06:58Z</time>
      </trkpt>
      <trkpt lat="49.98997" lon="2.21517">
        <ele>69.5</ele>
        <time>2013-12-22T09:07:11Z</time>
      </trkpt>
      <trkpt lat="49.99001" lon="2.21538">
        <ele>68.1</ele>
        <time>2013-12-22T09:07:20Z</time>
      </trkpt>
      <trkpt lat="49.99006" lon="2.21558">
        <ele>66.8</ele>
        <time>2013-12-22T09:07:29Z</time>
      </trkpt>
      <trkpt lat="49.99011" lon="2.21578">
        <ele>65.3</ele>
        <time>2013-12-22T09:07:39Z</time>
      </trkpt>
      <trkpt lat="49.99017" lon="2.21599">
        <ele>65.3</ele>
        <time>2013-12-22T09:07:48Z</time>
      </trkpt>
      <trkpt lat="49.99021" lon="2.2162">
        <ele>65.7</ele>
        <time>2013-12-22T09:07:56Z</time>
      </trkpt>
      <trkpt lat="49.99025" lon="2.21641">
        <ele>65.2</ele>
        <time>2013-12-22T09:08:07Z</time>
      </trkpt>
      <trkpt lat="49.99014" lon="2.21654">
        <ele>64.8</ele>
        <time>2013-12-22T09:08:15Z</time>
      </trkpt>
      <trkpt lat="49.99001" lon="2.21663">
        <ele>64.3</ele>
        <time>2013-12-22T09:08:27Z</time>
      </trkpt>
      <trkpt lat="49.98988" lon="2.21675">
        <ele>63.9</ele>
        <time>2013-12-22T09:08:40Z</time>
      </trkpt>
      <trkpt lat="49.98977" lon="2.21689">
        <ele>63.6</ele>
        <time>2013-12-22T09:08:47Z</time>
      </trkpt>
      <trkpt lat="49.98965" lon="2.21703">
        <ele>63.3</ele>
        <time>2013-12-22T09:08:57Z</time>
      </trkpt>
      <trkpt lat="49.98954" lon="2.21716">
        <ele>63</ele>
        <time>2013-12-22T09:09:06Z</time>
      </trkpt>
      <trkpt lat="49.98943" lon="2.21728">
        <ele>62.7</ele>
        <time>2013-12-22T09:09:15Z</time>
      </trkpt>
      <trkpt lat="49.9893" lon="2.21737">
        <ele>62.2</ele>
        <time>2013-12-22T09:09:28Z</time>
      </trkpt>
      <trkpt lat="49.9892" lon="2.21752">
        <ele>61.8</ele>
        <time>2013-12-22T09:09:36Z</time>
      </trkpt>
      <trkpt lat="49.98909" lon="2.21767">
        <ele>61</ele>
        <time>2013-12-22T09:09:43Z</time>
      </trkpt>
      <trkpt lat="49.98898" lon="2.21778">
        <ele>60.1</ele>
        <time>2013-12-22T09:09:51Z</time>
      </trkpt>
      <trkpt lat="49.98886" lon="2.2179">
        <ele>59.1</ele>
        <time>2013-12-22T09:10:00Z</time>
      </trkpt>
      <trkpt lat="49.98874" lon="2.21802">
        <ele>59.8</ele>
        <time>2013-12-22T09:10:08Z</time>
      </trkpt>
      <trkpt lat="49.98862" lon="2.21813">
        <ele>60.8</ele>
        <time>2013-12-22T09:10:16Z</time>
      </trkpt>
      <trkpt lat="49.98851" lon="2.21827">
        <ele>62</ele>
        <time>2013-12-22T09:10:26Z</time>
      </trkpt>
      <trkpt lat="49.98839" lon="2.21842">
        <ele>62.8</ele>
        <time>2013-12-22T09:10:35Z</time>
      </trkpt>
      <trkpt lat="49.98829" lon="2.2186">
        <ele>61.6</ele>
        <time>2013-12-22T09:10:42Z</time>
      </trkpt>
      <trkpt lat="49.9882" lon="2.21876">
        <ele>60.1</ele>
        <time>2013-12-22T09:10:50Z</time>
      </trkpt>
      <trkpt lat="49.98809" lon="2.21885">
        <ele>58.2</ele>
        <time>2013-12-22T09:11:01Z</time>
      </trkpt>
      <trkpt lat="49.98797" lon="2.21897">
        <ele>57.4</ele>
        <time>2013-12-22T09:11:12Z</time>
      </trkpt>
      <trkpt lat="49.98785" lon="2.21909">
        <ele>56.9</ele>
        <time>2013-12-22T09:11:20Z</time>
      </trkpt>
      <trkpt lat="49.98773" lon="2.21921">
        <ele>56.4</ele>
        <time>2013-12-22T09:11:29Z</time>
      </trkpt>
      <trkpt lat="49.98761" lon="2.21934">
        <ele>55.8</ele>
        <time>2013-12-22T09:11:38Z</time>
      </trkpt>
      <trkpt lat="49.9875" lon="2.21949">
        <ele>55.3</ele>
        <time>2013-12-22T09:11:47Z</time>
      </trkpt>
      <trkpt lat="49.98738" lon="2.21961">
        <ele>54.6</ele>
        <time>2013-12-22T09:11:59Z</time>
      </trkpt>
      <trkpt lat="49.98727" lon="2.21977">
        <ele>54.2</ele>
        <time>2013-12-22T09:12:06Z</time>
      </trkpt>
      <trkpt lat="49.98714" lon="2.21988">
        <ele>53.7</ele>
        <time>2013-12-22T09:12:16Z</time>
      </trkpt>
      <trkpt lat="49.98704" lon="2.22004">
        <ele>53.2</ele>
        <time>2013-12-22T09:12:26Z</time>
      </trkpt>
      <trkpt lat="49.98695" lon="2.22019">
        <ele>52.8</ele>
        <time>2013-12-22T09:12:32Z</time>
      </trkpt>
      <trkpt lat="49.98683" lon="2.22031">
        <ele>52.2</ele>
        <time>2013-12-22T09:12:44Z</time>
      </trkpt>
      <trkpt lat="49.98671" lon="2.22041">
        <ele>51.7</ele>
        <time>2013-12-22T09:12:53Z</time>
      </trkpt>
      <trkpt lat="49.98659" lon="2.22057">
        <ele>51.3</ele>
        <time>2013-12-22T09:13:01Z</time>
      </trkpt>
      <trkpt lat="49.98647" lon="2.22065">
        <ele>50.4</ele>
        <time>2013-12-22T09:13:13Z</time>
      </trkpt>
      <trkpt lat="49.98634" lon="2.22076">
        <ele>49.2</ele>
        <time>2013-12-22T09:13:26Z</time>
      </trkpt>
      <trkpt lat="49.98624" lon="2.22092">
        <ele>48.4</ele>
        <time>2013-12-22T09:13:35Z</time>
      </trkpt>
      <trkpt lat="49.98611" lon="2.22103">
        <ele>47.7</ele>
        <time>2013-12-22T09:13:46Z</time>
      </trkpt>
      <trkpt lat="49.98601" lon="2.22117">
        <ele>47.3</ele>
        <time>2013-12-22T09:13:54Z</time>
      </trkpt>
      <trkpt lat="49.98589" lon="2.2213">
        <ele>46.9</ele>
        <time>2013-12-22T09:14:03Z</time>
      </trkpt>
      <trkpt lat="49.98577" lon="2.22143">
        <ele>46.5</ele>
        <time>2013-12-22T09:14:13Z</time>
      </trkpt>
      <trkpt lat="49.98564" lon="2.22153">
        <ele>46.1</ele>
        <time>2013-12-22T09:14:22Z</time>
      </trkpt>
      <trkpt lat="49.98551" lon="2.2216">
        <ele>45.5</ele>
        <time>2013-12-22T09:14:34Z</time>
      </trkpt>
      <trkpt lat="49.98538" lon="2.22171">
        <ele>46.6</ele>
        <time>2013-12-22T09:14:48Z</time>
      </trkpt>
      <trkpt lat="49.98527" lon="2.22184">
        <ele>48.5</ele>
        <time>2013-12-22T09:14:57Z</time>
      </trkpt>
      <trkpt lat="49.98515" lon="2.22197">
        <ele>47.6</ele>
        <time>2013-12-22T09:15:07Z</time>
      </trkpt>
      <trkpt lat="49.98507" lon="2.22215">
        <ele>46.8</ele>
        <time>2013-12-22T09:15:16Z</time>
      </trkpt>
      <trkpt lat="49.98496" lon="2.22226">
        <ele>45.8</ele>
        <time>2013-12-22T09:15:28Z</time>
      </trkpt>
      <trkpt lat="49.98484" lon="2.22237">
        <ele>45.3</ele>
        <time>2013-12-22T09:15:36Z</time>
      </trkpt>
      <trkpt lat="49.98473" lon="2.22251">
        <ele>44.7</ele>
        <time>2013-12-22T09:15:46Z</time>
      </trkpt>
      <trkpt lat="49.98462" lon="2.22267">
        <ele>43.8</ele>
        <time>2013-12-22T09:15:59Z</time>
      </trkpt>
      <trkpt lat="49.98451" lon="2.22281">
        <ele>43.1</ele>
        <time>2013-12-22T09:16:10Z</time>
      </trkpt>
      <trkpt lat="49.98437" lon="2.22291">
        <ele>42.5</ele>
        <time>2013-12-22T09:16:19Z</time>
      </trkpt>
      <trkpt lat="49.98425" lon="2.22303">
        <ele>41.8</ele>
        <time>2013-12-22T09:16:30Z</time>
      </trkpt>
      <trkpt lat="49.98413" lon="2.22316">
        <ele>41.2</ele>
        <time>2013-12-22T09:16:39Z</time>
      </trkpt>
      <trkpt lat="49.98402" lon="2.22331">
        <ele>40.7</ele>
        <time>2013-12-22T09:16:47Z</time>
      </trkpt>
      <trkpt lat="49.98388" lon="2.22332">
        <ele>40.4</ele>
        <time>2013-12-22T09:17:01Z</time>
      </trkpt>
      <trkpt lat="49.98377" lon="2.2232">
        <ele>42.1</ele>
        <time>2013-12-22T09:17:14Z</time>
      </trkpt>
      <trkpt lat="49.98365" lon="2.22306">
        <ele>43.3</ele>
        <time>2013-12-22T09:17:27Z</time>
      </trkpt>
      <trkpt lat="49.98354" lon="2.22288">
        <ele>43.9</ele>
        <time>2013-12-22T09:17:37Z</time>
      </trkpt>
      <trkpt lat="49.98344" lon="2.22274">
        <ele>44.3</ele>
        <time>2013-12-22T09:17:45Z</time>
      </trkpt>
      <trkpt lat="49.98336" lon="2.22258">
        <ele>44.8</ele>
        <time>2013-12-22T09:17:55Z</time>
      </trkpt>
      <trkpt lat="49.9833" lon="2.22237">
        <ele>45.3</ele>
        <time>2013-12-22T09:18:05Z</time>
      </trkpt>
      <trkpt lat="49.9832" lon="2.22222">
        <ele>45.7</ele>
        <time>2013-12-22T09:18:13Z</time>
      </trkpt>
      <trkpt lat="49.98308" lon="2.22208">
        <ele>46.9</ele>
        <time>2013-12-22T09:18:23Z</time>
      </trkpt>
      <trkpt lat="49.98295" lon="2.222">
        <ele>48.7</ele>
        <time>2013-12-22T09:18:33Z</time>
      </trkpt>
      <trkpt lat="49.98287" lon="2.22182">
        <ele>50.1</ele>
        <time>2013-12-22T09:18:44Z</time>
      </trkpt>
      <trkpt lat="49.98276" lon="2.22168">
        <ele>50.5</ele>
        <time>2013-12-22T09:18:53Z</time>
      </trkpt>
      <trkpt lat="49.98266" lon="2.22154">
        <ele>50.8</ele>
        <time>2013-12-22T09:19:02Z</time>
      </trkpt>
      <trkpt lat="49.98257" lon="2.22136">
        <ele>51.6</ele>
        <time>2013-12-22T09:19:12Z</time>
      </trkpt>
      <trkpt lat="49.98248" lon="2.22119">
        <ele>52.7</ele>
        <time>2013-12-22T09:19:20Z</time>
      </trkpt>
      <trkpt lat="49.9823" lon="2.22081">
        <ele>51.9</ele>
        <time>2013-12-22T09:19:34Z</time>
      </trkpt>
      <trkpt lat="49.9823" lon="2.22081">
        <ele>51.9</ele>
        <time>2013-12-22T09:25:33Z</time>
      </trkpt>
      <trkpt lat="49.98222" lon="2.22058">
        <ele>50</ele>
        <time>2013-12-22T09:25:36Z</time>
      </trkpt>
      <trkpt lat="49.98216" lon="2.2204">
        <ele>49.1</ele>
        <time>2013-12-22T09:25:47Z</time>
      </trkpt>
      <trkpt lat="49.98209" lon="2.22019">
        <ele>48.2</ele>
        <time>2013-12-22T09:25:58Z</time>
      </trkpt>
      <trkpt lat="49.98201" lon="2.22001">
        <ele>47.5</ele>
        <time>2013-12-22T09:26:07Z</time>
      </trkpt>
      <trkpt lat="49.98192" lon="2.21986">
        <ele>46.7</ele>
        <time>2013-12-22T09:26:17Z</time>
      </trkpt>
      <trkpt lat="49.98185" lon="2.21967">
        <ele>42</ele>
        <time>2013-12-22T09:26:30Z</time>
      </trkpt>
      <trkpt lat="49.98178" lon="2.21948">
        <ele>39.5</ele>
        <time>2013-12-22T09:26:40Z</time>
      </trkpt>
      <trkpt lat="49.98169" lon="2.21929">
        <ele>44</ele>
        <time>2013-12-22T09:26:49Z</time>
      </trkpt>
      <trkpt lat="49.98162" lon="2.21911">
        <ele>49.1</ele>
        <time>2013-12-22T09:26:58Z</time>
      </trkpt>
      <trkpt lat="49.98153" lon="2.21892">
        <ele>51.3</ele>
        <time>2013-12-22T09:27:08Z</time>
      </trkpt>
      <trkpt lat="49.98143" lon="2.21876">
        <ele>53.3</ele>
        <time>2013-12-22T09:27:17Z</time>
      </trkpt>
      <trkpt lat="49.98134" lon="2.2186">
        <ele>54.5</ele>
        <time>2013-12-22T09:27:26Z</time>
      </trkpt>
      <trkpt lat="49.98124" lon="2.21843">
        <ele>54.6</ele>
        <time>2013-12-22T09:27:36Z</time>
      </trkpt>
      <trkpt lat="49.98117" lon="2.21825">
        <ele>54.5</ele>
        <time>2013-12-22T09:27:45Z</time>
      </trkpt>
      <trkpt lat="49.98109" lon="2.21807">
        <ele>49.7</ele>
        <time>2013-12-22T09:27:55Z</time>
      </trkpt>
      <trkpt lat="49.98103" lon="2.21789">
        <ele>48.5</ele>
        <time>2013-12-22T09:28:04Z</time>
      </trkpt>
      <trkpt lat="49.98095" lon="2.21769">
        <ele>47.2</ele>
        <time>2013-12-22T09:28:13Z</time>
      </trkpt>
      <trkpt lat="49.98087" lon="2.2175">
        <ele>44.8</ele>
        <time>2013-12-22T09:28:23Z</time>
      </trkpt>
      <trkpt lat="49.98078" lon="2.21732">
        <ele>46.7</ele>
        <time>2013-12-22T09:28:32Z</time>
      </trkpt>
      <trkpt lat="49.98069" lon="2.21715">
        <ele>50.6</ele>
        <time>2013-12-22T09:28:40Z</time>
      </trkpt>
      <trkpt lat="49.98062" lon="2.21695">
        <ele>52</ele>
        <time>2013-12-22T09:28:50Z</time>
      </trkpt>
      <trkpt lat="49.98051" lon="2.2168">
        <ele>52</ele>
        <time>2013-12-22T09:28:57Z</time>
      </trkpt>
      <trkpt lat="49.98044" lon="2.21662">
        <ele>52</ele>
        <time>2013-12-22T09:29:07Z</time>
      </trkpt>
      <trkpt lat="49.98039" lon="2.2164">
        <ele>52</ele>
        <time>2013-12-22T09:29:17Z</time>
      </trkpt>
      <trkpt lat="49.98032" lon="2.21619">
        <ele>52</ele>
        <time>2013-12-22T09:29:28Z</time>
      </trkpt>
      <trkpt lat="49.98023" lon="2.21603">
        <ele>51</ele>
        <time>2013-12-22T09:29:37Z</time>
      </trkpt>
      <trkpt lat="49.98014" lon="2.21586">
        <ele>48.5</ele>
        <time>2013-12-22T09:29:47Z</time>
      </trkpt>
      <trkpt lat="49.98005" lon="2.21571">
        <ele>49.2</ele>
        <time>2013-12-22T09:29:58Z</time>
      </trkpt>
      <trkpt lat="49.97996" lon="2.21552">
        <ele>50.2</ele>
        <time>2013-12-22T09:30:05Z</time>
      </trkpt>
      <trkpt lat="49.97988" lon="2.21533">
        <ele>50.5</ele>
        <time>2013-12-22T09:30:14Z</time>
      </trkpt>
      <trkpt lat="49.97977" lon="2.21517">
        <ele>48.3</ele>
        <time>2013-12-22T09:30:26Z</time>
      </trkpt>
      <trkpt lat="49.97968" lon="2.21501">
        <ele>51.2</ele>
        <time>2013-12-22T09:30:35Z</time>
      </trkpt>
      <trkpt lat="49.97956" lon="2.21488">
        <ele>52.3</ele>
        <time>2013-12-22T09:30:43Z</time>
      </trkpt>
      <trkpt lat="49.97948" lon="2.21469">
        <ele>53.2</ele>
        <time>2013-12-22T09:30:58Z</time>
      </trkpt>
      <trkpt lat="49.97937" lon="2.21456">
        <ele>55.9</ele>
        <time>2013-12-22T09:31:09Z</time>
      </trkpt>
      <trkpt lat="49.97927" lon="2.21439">
        <ele>59.7</ele>
        <time>2013-12-22T09:31:17Z</time>
      </trkpt>
      <trkpt lat="49.97915" lon="2.2143">
        <ele>63</ele>
        <time>2013-12-22T09:31:24Z</time>
      </trkpt>
      <trkpt lat="49.97902" lon="2.21422">
        <ele>62.6</ele>
        <time>2013-12-22T09:31:31Z</time>
      </trkpt>
      <trkpt lat="49.97893" lon="2.21406">
        <ele>59.6</ele>
        <time>2013-12-22T09:31:43Z</time>
      </trkpt>
      <trkpt lat="49.97883" lon="2.21391">
        <ele>57.7</ele>
        <time>2013-12-22T09:31:53Z</time>
      </trkpt>
      <trkpt lat="49.97871" lon="2.21377">
        <ele>54.8</ele>
        <time>2013-12-22T09:32:05Z</time>
      </trkpt>
      <trkpt lat="49.97859" lon="2.21367">
        <ele>53.1</ele>
        <time>2013-12-22T09:32:14Z</time>
      </trkpt>
      <trkpt lat="49.97847" lon="2.21356">
        <ele>52</ele>
        <time>2013-12-22T09:32:23Z</time>
      </trkpt>
      <trkpt lat="49.97834" lon="2.21345">
        <ele>52.5</ele>
        <time>2013-12-22T09:32:33Z</time>
      </trkpt>
      <trkpt lat="49.97821" lon="2.21335">
        <ele>53.1</ele>
        <time>2013-12-22T09:32:42Z</time>
      </trkpt>
      <trkpt lat="49.9781" lon="2.21324">
        <ele>53.8</ele>
        <time>2013-12-22T09:32:52Z</time>
      </trkpt>
      <trkpt lat="49.97799" lon="2.21309">
        <ele>55.4</ele>
        <time>2013-12-22T09:33:03Z</time>
      </trkpt>
      <trkpt lat="49.97786" lon="2.21308">
        <ele>57.5</ele>
        <time>2013-12-22T09:33:15Z</time>
      </trkpt>
      <trkpt lat="49.97785" lon="2.21313">
        <ele>56.5</ele>
        <time>2013-12-22T09:33:21Z</time>
      </trkpt>
      <trkpt lat="49.97772" lon="2.21302">
        <ele>55.6</ele>
        <time>2013-12-22T09:33:29Z</time>
      </trkpt>
      <trkpt lat="49.97759" lon="2.21295">
        <ele>56.8</ele>
        <time>2013-12-22T09:33:38Z</time>
      </trkpt>
      <trkpt lat="49.97746" lon="2.21287">
        <ele>57.9</ele>
        <time>2013-12-22T09:33:48Z</time>
      </trkpt>
      <trkpt lat="49.97733" lon="2.21279">
        <ele>56.3</ele>
        <time>2013-12-22T09:33:57Z</time>
      </trkpt>
      <trkpt lat="49.9772" lon="2.21269">
        <ele>54.7</ele>
        <time>2013-12-22T09:34:07Z</time>
      </trkpt>
      <trkpt lat="49.97706" lon="2.21263">
        <ele>53.3</ele>
        <time>2013-12-22T09:34:17Z</time>
      </trkpt>
      <trkpt lat="49.97693" lon="2.21254">
        <ele>52</ele>
        <time>2013-12-22T09:34:26Z</time>
      </trkpt>
      <trkpt lat="49.97681" lon="2.21245">
        <ele>50.7</ele>
        <time>2013-12-22T09:34:35Z</time>
      </trkpt>
      <trkpt lat="49.97668" lon="2.21237">
        <ele>49.4</ele>
        <time>2013-12-22T09:34:44Z</time>
      </trkpt>
      <trkpt lat="49.97655" lon="2.21225">
        <ele>49</ele>
        <time>2013-12-22T09:34:53Z</time>
      </trkpt>
      <trkpt lat="49.97643" lon="2.21215">
        <ele>49</ele>
        <time>2013-12-22T09:35:03Z</time>
      </trkpt>
      <trkpt lat="49.97631" lon="2.21202">
        <ele>49.7</ele>
        <time>2013-12-22T09:35:12Z</time>
      </trkpt>
      <trkpt lat="49.97619" lon="2.21191">
        <ele>51.6</ele>
        <time>2013-12-22T09:35:20Z</time>
      </trkpt>
      <trkpt lat="49.97608" lon="2.21177">
        <ele>52.9</ele>
        <time>2013-12-22T09:35:27Z</time>
      </trkpt>
      <trkpt lat="49.97595" lon="2.21168">
        <ele>51.5</ele>
        <time>2013-12-22T09:35:37Z</time>
      </trkpt>
      <trkpt lat="49.97585" lon="2.21152">
        <ele>50.1</ele>
        <time>2013-12-22T09:35:47Z</time>
      </trkpt>
      <trkpt lat="49.97573" lon="2.21141">
        <ele>53.4</ele>
        <time>2013-12-22T09:35:56Z</time>
      </trkpt>
      <trkpt lat="49.97561" lon="2.21129">
        <ele>54.7</ele>
        <time>2013-12-22T09:36:06Z</time>
      </trkpt>
      <trkpt lat="49.9755" lon="2.21116">
        <ele>55.9</ele>
        <time>2013-12-22T09:36:15Z</time>
      </trkpt>
      <trkpt lat="49.97537" lon="2.21106">
        <ele>56.7</ele>
        <time>2013-12-22T09:36:24Z</time>
      </trkpt>
      <trkpt lat="49.97526" lon="2.21091">
        <ele>54.9</ele>
        <time>2013-12-22T09:36:34Z</time>
      </trkpt>
      <trkpt lat="49.97516" lon="2.21076">
        <ele>53</ele>
        <time>2013-12-22T09:36:44Z</time>
      </trkpt>
      <trkpt lat="49.97504" lon="2.21066">
        <ele>53.3</ele>
        <time>2013-12-22T09:36:55Z</time>
      </trkpt>
      <trkpt lat="49.97491" lon="2.2106">
        <ele>53.6</ele>
        <time>2013-12-22T09:37:04Z</time>
      </trkpt>
      <trkpt lat="49.9748" lon="2.21047">
        <ele>53.9</ele>
        <time>2013-12-22T09:37:14Z</time>
      </trkpt>
      <trkpt lat="49.9747" lon="2.2103">
        <ele>54.4</ele>
        <time>2013-12-22T09:37:27Z</time>
      </trkpt>
      <trkpt lat="49.97457" lon="2.21018">
        <ele>54.8</ele>
        <time>2013-12-22T09:37:40Z</time>
      </trkpt>
      <trkpt lat="49.97447" lon="2.21003">
        <ele>55.1</ele>
        <time>2013-12-22T09:37:50Z</time>
      </trkpt>
      <trkpt lat="49.97434" lon="2.20992">
        <ele>55.4</ele>
        <time>2013-12-22T09:38:00Z</time>
      </trkpt>
      <trkpt lat="49.97422" lon="2.2098">
        <ele>55.8</ele>
        <time>2013-12-22T09:38:12Z</time>
      </trkpt>
      <trkpt lat="49.97409" lon="2.20968">
        <ele>55.7</ele>
        <time>2013-12-22T09:38:21Z</time>
      </trkpt>
      <trkpt lat="49.97398" lon="2.20956">
        <ele>54.5</ele>
        <time>2013-12-22T09:38:30Z</time>
      </trkpt>
      <trkpt lat="49.97388" lon="2.2094">
        <ele>53.3</ele>
        <time>2013-12-22T09:38:39Z</time>
      </trkpt>
      <trkpt lat="49.97378" lon="2.20925">
        <ele>52.4</ele>
        <time>2013-12-22T09:38:50Z</time>
      </trkpt>
      <trkpt lat="49.97364" lon="2.20919">
        <ele>51.8</ele>
        <time>2013-12-22T09:39:00Z</time>
      </trkpt>
      <trkpt lat="49.97353" lon="2.20904">
        <ele>51.1</ele>
        <time>2013-12-22T09:39:11Z</time>
      </trkpt>
      <trkpt lat="49.97342" lon="2.2089">
        <ele>50.4</ele>
        <time>2013-12-22T09:39:21Z</time>
      </trkpt>
      <trkpt lat="49.97327" lon="2.20878">
        <ele>50.2</ele>
        <time>2013-12-22T09:39:35Z</time>
      </trkpt>
      <trkpt lat="49.97327" lon="2.20878">
        <ele>50.2</ele>
        <time>2013-12-22T09:41:38Z</time>
      </trkpt>
      <trkpt lat="49.97319" lon="2.20862">
        <ele>53.9</ele>
        <time>2013-12-22T09:41:58Z</time>
      </trkpt>
      <trkpt lat="49.97319" lon="2.20862">
        <ele>53.9</ele>
        <time>2013-12-22T09:52:49Z</time>
      </trkpt>
      <trkpt lat="49.97304" lon="2.20843">
        <ele>56.2</ele>
        <time>2013-12-22T09:53:26Z</time>
      </trkpt>
      <trkpt lat="49.97304" lon="2.20843">
        <ele>56.2</ele>
        <time>2013-12-22T09:59:23Z</time>
      </trkpt>
      <trkpt lat="49.97295" lon="2.20835">
        <ele>54.4</ele>
        <time>2013-12-22T09:59:35Z</time>
      </trkpt>
      <trkpt lat="49.9729" lon="2.20824">
        <ele>55.1</ele>
        <time>2013-12-22T09:59:47Z</time>
      </trkpt>
      <trkpt lat="49.97299" lon="2.20808">
        <ele>55.8</ele>
        <time>2013-12-22T09:59:59Z</time>
      </trkpt>
      <trkpt lat="49.97301" lon="2.20781">
        <ele>56.2</ele>
        <time>2013-12-22T10:00:07Z</time>
      </trkpt>
      <trkpt lat="49.97311" lon="2.20767">
        <ele>56.9</ele>
        <time>2013-12-22T10:00:19Z</time>
      </trkpt>
      <trkpt lat="49.97315" lon="2.2075">
        <ele>53.8</ele>
        <time>2013-12-22T10:00:30Z</time>
      </trkpt>
      <trkpt lat="49.97329" lon="2.20744">
        <ele>54.9</ele>
        <time>2013-12-22T10:00:40Z</time>
      </trkpt>
      <trkpt lat="49.97336" lon="2.20726">
        <ele>57</ele>
        <time>2013-12-22T10:00:49Z</time>
      </trkpt>
      <trkpt lat="49.97345" lon="2.2071">
        <ele>57.6</ele>
        <time>2013-12-22T10:00:59Z</time>
      </trkpt>
      <trkpt lat="49.97352" lon="2.20691">
        <ele>58.3</ele>
        <time>2013-12-22T10:01:11Z</time>
      </trkpt>
      <trkpt lat="49.97363" lon="2.20678">
        <ele>59</ele>
        <time>2013-12-22T10:01:23Z</time>
      </trkpt>
      <trkpt lat="49.97376" lon="2.20667">
        <ele>59.7</ele>
        <time>2013-12-22T10:01:36Z</time>
      </trkpt>
      <trkpt lat="49.97387" lon="2.20654">
        <ele>60.2</ele>
        <time>2013-12-22T10:01:45Z</time>
      </trkpt>
      <trkpt lat="49.97394" lon="2.20635">
        <ele>60.7</ele>
        <time>2013-12-22T10:01:53Z</time>
      </trkpt>
      <trkpt lat="49.97402" lon="2.20615">
        <ele>58.4</ele>
        <time>2013-12-22T10:02:02Z</time>
      </trkpt>
      <trkpt lat="49.97412" lon="2.20601">
        <ele>56.6</ele>
        <time>2013-12-22T10:02:10Z</time>
      </trkpt>
      <trkpt lat="49.97426" lon="2.20595">
        <ele>55.6</ele>
        <time>2013-12-22T10:02:24Z</time>
      </trkpt>
      <trkpt lat="49.97436" lon="2.2058">
        <ele>55</ele>
        <time>2013-12-22T10:02:33Z</time>
      </trkpt>
      <trkpt lat="49.97447" lon="2.20566">
        <ele>54.5</ele>
        <time>2013-12-22T10:02:41Z</time>
      </trkpt>
      <trkpt lat="49.97461" lon="2.20572">
        <ele>53.4</ele>
        <time>2013-12-22T10:02:51Z</time>
      </trkpt>
      <trkpt lat="49.97465" lon="2.20577">
        <ele>53.1</ele>
        <time>2013-12-22T10:02:53Z</time>
      </trkpt>
      <trkpt lat="49.9747" lon="2.20555">
        <ele>52</ele>
        <time>2013-12-22T10:02:59Z</time>
      </trkpt>
      <trkpt lat="49.97476" lon="2.20536">
        <ele>52</ele>
        <time>2013-12-22T10:03:06Z</time>
      </trkpt>
      <trkpt lat="49.97483" lon="2.20518">
        <ele>51.7</ele>
        <time>2013-12-22T10:03:13Z</time>
      </trkpt>
      <trkpt lat="49.97494" lon="2.20505">
        <ele>51.4</ele>
        <time>2013-12-22T10:03:22Z</time>
      </trkpt>
      <trkpt lat="49.97509" lon="2.20495">
        <ele>51.1</ele>
        <time>2013-12-22T10:03:31Z</time>
      </trkpt>
      <trkpt lat="49.97521" lon="2.20484">
        <ele>50.7</ele>
        <time>2013-12-22T10:03:41Z</time>
      </trkpt>
      <trkpt lat="49.97534" lon="2.20476">
        <ele>50.4</ele>
        <time>2013-12-22T10:03:50Z</time>
      </trkpt>
      <trkpt lat="49.97548" lon="2.2047">
        <ele>49.9</ele>
        <time>2013-12-22T10:04:02Z</time>
      </trkpt>
      <trkpt lat="49.97555" lon="2.20452">
        <ele>49.7</ele>
        <time>2013-12-22T10:04:10Z</time>
      </trkpt>
      <trkpt lat="49.97565" lon="2.20437">
        <ele>49.3</ele>
        <time>2013-12-22T10:04:20Z</time>
      </trkpt>
      <trkpt lat="49.97576" lon="2.20423">
        <ele>48.4</ele>
        <time>2013-12-22T10:04:30Z</time>
      </trkpt>
      <trkpt lat="49.97586" lon="2.20406">
        <ele>46</ele>
        <time>2013-12-22T10:04:38Z</time>
      </trkpt>
      <trkpt lat="49.97599" lon="2.20398">
        <ele>41.3</ele>
        <time>2013-12-22T10:04:49Z</time>
      </trkpt>
      <trkpt lat="49.97595" lon="2.20377">
        <ele>38.5</ele>
        <time>2013-12-22T10:04:59Z</time>
      </trkpt>
      <trkpt lat="49.97597" lon="2.20356">
        <ele>36</ele>
        <time>2013-12-22T10:05:12Z</time>
      </trkpt>
      <trkpt lat="49.97602" lon="2.20347">
        <ele>35.2</ele>
        <time>2013-12-22T10:05:18Z</time>
      </trkpt>
      <trkpt lat="49.97594" lon="2.20328">
        <ele>34.4</ele>
        <time>2013-12-22T10:05:24Z</time>
      </trkpt>
      <trkpt lat="49.9759" lon="2.20306">
        <ele>33.1</ele>
        <time>2013-12-22T10:05:33Z</time>
      </trkpt>
      <trkpt lat="49.97584" lon="2.20287">
        <ele>36.2</ele>
        <time>2013-12-22T10:05:41Z</time>
      </trkpt>
      <trkpt lat="49.97582" lon="2.20264">
        <ele>36.8</ele>
        <time>2013-12-22T10:05:51Z</time>
      </trkpt>
      <trkpt lat="49.97573" lon="2.20248">
        <ele>36.7</ele>
        <time>2013-12-22T10:05:57Z</time>
      </trkpt>
      <trkpt lat="49.97569" lon="2.20228">
        <ele>36.4</ele>
        <time>2013-12-22T10:06:07Z</time>
      </trkpt>
      <trkpt lat="49.97566" lon="2.20206">
        <ele>36.2</ele>
        <time>2013-12-22T10:06:16Z</time>
      </trkpt>
      <trkpt lat="49.97563" lon="2.20184">
        <ele>35.9</ele>
        <time>2013-12-22T10:06:29Z</time>
      </trkpt>
      <trkpt lat="49.97563" lon="2.20161">
        <ele>35.6</ele>
        <time>2013-12-22T10:06:40Z</time>
      </trkpt>
      <trkpt lat="49.97561" lon="2.20139">
        <ele>35.2</ele>
        <time>2013-12-22T10:06:53Z</time>
      </trkpt>
      <trkpt lat="49.97557" lon="2.20118">
        <ele>35</ele>
        <time>2013-12-22T10:07:02Z</time>
      </trkpt>
      <trkpt lat="49.97553" lon="2.20097">
        <ele>34.8</ele>
        <time>2013-12-22T10:07:11Z</time>
      </trkpt>
      <trkpt lat="49.97544" lon="2.20076">
        <ele>34.6</ele>
        <time>2013-12-22T10:07:16Z</time>
      </trkpt>
      <trkpt lat="49.97541" lon="2.20056">
        <ele>34.4</ele>
        <time>2013-12-22T10:07:25Z</time>
      </trkpt>
      <trkpt lat="49.97539" lon="2.20033">
        <ele>34.2</ele>
        <time>2013-12-22T10:07:35Z</time>
      </trkpt>
      <trkpt lat="49.97535" lon="2.20011">
        <ele>34.5</ele>
        <time>2013-12-22T10:07:44Z</time>
      </trkpt>
      <trkpt lat="49.97533" lon="2.1999">
        <ele>36.6</ele>
        <time>2013-12-22T10:07:56Z</time>
      </trkpt>
      <trkpt lat="49.97532" lon="2.19968">
        <ele>38.2</ele>
        <time>2013-12-22T10:08:07Z</time>
      </trkpt>
      <trkpt lat="49.97527" lon="2.19947">
        <ele>39.5</ele>
        <time>2013-12-22T10:08:16Z</time>
      </trkpt>
      <trkpt lat="49.97521" lon="2.19927">
        <ele>40.4</ele>
        <time>2013-12-22T10:08:25Z</time>
      </trkpt>
      <trkpt lat="49.9752" lon="2.19903">
        <ele>41.4</ele>
        <time>2013-12-22T10:08:36Z</time>
      </trkpt>
      <trkpt lat="49.97515" lon="2.19883">
        <ele>42</ele>
        <time>2013-12-22T10:08:48Z</time>
      </trkpt>
      <trkpt lat="49.97508" lon="2.19865">
        <ele>42</ele>
        <time>2013-12-22T10:08:54Z</time>
      </trkpt>
      <trkpt lat="49.97502" lon="2.19845">
        <ele>44.6</ele>
        <time>2013-12-22T10:09:05Z</time>
      </trkpt>
      <trkpt lat="49.97494" lon="2.19827">
        <ele>43.8</ele>
        <time>2013-12-22T10:09:14Z</time>
      </trkpt>
      <trkpt lat="49.97495" lon="2.19804">
        <ele>42.9</ele>
        <time>2013-12-22T10:09:24Z</time>
      </trkpt>
      <trkpt lat="49.97496" lon="2.1978">
        <ele>41.7</ele>
        <time>2013-12-22T10:09:38Z</time>
      </trkpt>
      <trkpt lat="49.97488" lon="2.19727">
        <ele>39.6</ele>
        <time>2013-12-22T10:09:56Z</time>
      </trkpt>
      <trkpt lat="49.97488" lon="2.19727">
        <ele>39.6</ele>
        <time>2013-12-22T10:12:21Z</time>
      </trkpt>
      <trkpt lat="49.97482" lon="2.19696">
        <ele>38.4</ele>
        <time>2013-12-22T10:12:23Z</time>
      </trkpt>
      <trkpt lat="49.97473" lon="2.19681">
        <ele>38.9</ele>
        <time>2013-12-22T10:12:33Z</time>
      </trkpt>
      <trkpt lat="49.97462" lon="2.19668">
        <ele>39.4</ele>
        <time>2013-12-22T10:12:39Z</time>
      </trkpt>
      <trkpt lat="49.9746" lon="2.19645">
        <ele>40</ele>
        <time>2013-12-22T10:12:45Z</time>
      </trkpt>
      <trkpt lat="49.97452" lon="2.19624">
        <ele>40.5</ele>
        <time>2013-12-22T10:12:50Z</time>
      </trkpt>
      <trkpt lat="49.97446" lon="2.19604">
        <ele>38.7</ele>
        <time>2013-12-22T10:13:03Z</time>
      </trkpt>
      <trkpt lat="49.97447" lon="2.19596">
        <ele>36.6</ele>
        <time>2013-12-22T10:13:10Z</time>
      </trkpt>
      <trkpt lat="49.9745" lon="2.19595">
        <ele>36.2</ele>
        <time>2013-12-22T10:13:13Z</time>
      </trkpt>
      <trkpt lat="49.97442" lon="2.19578">
        <ele>37.8</ele>
        <time>2013-12-22T10:13:19Z</time>
      </trkpt>
      <trkpt lat="49.97435" lon="2.1956">
        <ele>38.5</ele>
        <time>2013-12-22T10:13:31Z</time>
      </trkpt>
      <trkpt lat="49.97434" lon="2.19538">
        <ele>37.8</ele>
        <time>2013-12-22T10:13:39Z</time>
      </trkpt>
      <trkpt lat="49.97446" lon="2.1953">
        <ele>37.2</ele>
        <time>2013-12-22T10:13:47Z</time>
      </trkpt>
      <trkpt lat="49.97456" lon="2.19515">
        <ele>36.6</ele>
        <time>2013-12-22T10:13:55Z</time>
      </trkpt>
      <trkpt lat="49.97465" lon="2.19498">
        <ele>35.8</ele>
        <time>2013-12-22T10:14:04Z</time>
      </trkpt>
      <trkpt lat="49.97474" lon="2.1948">
        <ele>33.3</ele>
        <time>2013-12-22T10:14:15Z</time>
      </trkpt>
      <trkpt lat="49.97485" lon="2.19465">
        <ele>32.5</ele>
        <time>2013-12-22T10:14:27Z</time>
      </trkpt>
      <trkpt lat="49.97495" lon="2.1945">
        <ele>33.3</ele>
        <time>2013-12-22T10:14:38Z</time>
      </trkpt>
      <trkpt lat="49.97505" lon="2.19434">
        <ele>34.1</ele>
        <time>2013-12-22T10:14:48Z</time>
      </trkpt>
      <trkpt lat="49.97509" lon="2.19412">
        <ele>34.8</ele>
        <time>2013-12-22T10:14:58Z</time>
      </trkpt>
      <trkpt lat="49.97517" lon="2.19395">
        <ele>35.4</ele>
        <time>2013-12-22T10:15:05Z</time>
      </trkpt>
      <trkpt lat="49.97529" lon="2.19382">
        <ele>35.9</ele>
        <time>2013-12-22T10:15:14Z</time>
      </trkpt>
      <trkpt lat="49.97538" lon="2.19365">
        <ele>35.4</ele>
        <time>2013-12-22T10:15:23Z</time>
      </trkpt>
      <trkpt lat="49.97551" lon="2.19353">
        <ele>34.8</ele>
        <time>2013-12-22T10:15:33Z</time>
      </trkpt>
      <trkpt lat="49.97564" lon="2.19343">
        <ele>34.2</ele>
        <time>2013-12-22T10:15:42Z</time>
      </trkpt>
      <trkpt lat="49.97572" lon="2.19323">
        <ele>33.7</ele>
        <time>2013-12-22T10:15:50Z</time>
      </trkpt>
      <trkpt lat="49.9758" lon="2.19305">
        <ele>33.4</ele>
        <time>2013-12-22T10:15:56Z</time>
      </trkpt>
      <trkpt lat="49.97588" lon="2.19286">
        <ele>33.5</ele>
        <time>2013-12-22T10:16:04Z</time>
      </trkpt>
      <trkpt lat="49.97594" lon="2.19268">
        <ele>35.7</ele>
        <time>2013-12-22T10:16:13Z</time>
      </trkpt>
      <trkpt lat="49.97601" lon="2.19248">
        <ele>37.5</ele>
        <time>2013-12-22T10:16:22Z</time>
      </trkpt>
      <trkpt lat="49.97612" lon="2.19234">
        <ele>38.6</ele>
        <time>2013-12-22T10:16:30Z</time>
      </trkpt>
      <trkpt lat="49.97621" lon="2.19216">
        <ele>40.2</ele>
        <time>2013-12-22T10:16:42Z</time>
      </trkpt>
      <trkpt lat="49.9763" lon="2.192">
        <ele>41</ele>
        <time>2013-12-22T10:16:50Z</time>
      </trkpt>
      <trkpt lat="49.97641" lon="2.19184">
        <ele>41.7</ele>
        <time>2013-12-22T10:16:58Z</time>
      </trkpt>
      <trkpt lat="49.97652" lon="2.1917">
        <ele>41.7</ele>
        <time>2013-12-22T10:17:05Z</time>
      </trkpt>
      <trkpt lat="49.9766" lon="2.1915">
        <ele>41.2</ele>
        <time>2013-12-22T10:17:14Z</time>
      </trkpt>
      <trkpt lat="49.97666" lon="2.1913">
        <ele>43.1</ele>
        <time>2013-12-22T10:17:22Z</time>
      </trkpt>
      <trkpt lat="49.97673" lon="2.19111">
        <ele>45</ele>
        <time>2013-12-22T10:17:30Z</time>
      </trkpt>
      <trkpt lat="49.97682" lon="2.19094">
        <ele>45.8</ele>
        <time>2013-12-22T10:17:39Z</time>
      </trkpt>
      <trkpt lat="49.97694" lon="2.19079">
        <ele>46.7</ele>
        <time>2013-12-22T10:17:49Z</time>
      </trkpt>
      <trkpt lat="49.97704" lon="2.19065">
        <ele>47.4</ele>
        <time>2013-12-22T10:17:57Z</time>
      </trkpt>
      <trkpt lat="49.97714" lon="2.19051">
        <ele>47.7</ele>
        <time>2013-12-22T10:18:06Z</time>
      </trkpt>
      <trkpt lat="49.97726" lon="2.19039">
        <ele>46.2</ele>
        <time>2013-12-22T10:18:17Z</time>
      </trkpt>
      <trkpt lat="49.97733" lon="2.19018">
        <ele>45</ele>
        <time>2013-12-22T10:18:26Z</time>
      </trkpt>
      <trkpt lat="49.97743" lon="2.19003">
        <ele>45.5</ele>
        <time>2013-12-22T10:18:35Z</time>
      </trkpt>
      <trkpt lat="49.97753" lon="2.18986">
        <ele>45.9</ele>
        <time>2013-12-22T10:18:43Z</time>
      </trkpt>
      <trkpt lat="49.97765" lon="2.18973">
        <ele>46.6</ele>
        <time>2013-12-22T10:18:55Z</time>
      </trkpt>
      <trkpt lat="49.97773" lon="2.18954">
        <ele>47.2</ele>
        <time>2013-12-22T10:19:06Z</time>
      </trkpt>
      <trkpt lat="49.9778" lon="2.18936">
        <ele>47.7</ele>
        <time>2013-12-22T10:19:15Z</time>
      </trkpt>
      <trkpt lat="49.97791" lon="2.18922">
        <ele>48.6</ele>
        <time>2013-12-22T10:19:25Z</time>
      </trkpt>
      <trkpt lat="49.97802" lon="2.18907">
        <ele>49.9</ele>
        <time>2013-12-22T10:19:36Z</time>
      </trkpt>
      <trkpt lat="49.9781" lon="2.1889">
        <ele>50.8</ele>
        <time>2013-12-22T10:19:44Z</time>
      </trkpt>
      <trkpt lat="49.97819" lon="2.18874">
        <ele>52</ele>
        <time>2013-12-22T10:19:54Z</time>
      </trkpt>
      <trkpt lat="49.97824" lon="2.18849">
        <ele>51.8</ele>
        <time>2013-12-22T10:20:00Z</time>
      </trkpt>
      <trkpt lat="49.97833" lon="2.18832">
        <ele>51.3</ele>
        <time>2013-12-22T10:20:14Z</time>
      </trkpt>
      <trkpt lat="49.97838" lon="2.1881">
        <ele>51</ele>
        <time>2013-12-22T10:20:22Z</time>
      </trkpt>
      <trkpt lat="49.9784" lon="2.18789">
        <ele>49</ele>
        <time>2013-12-22T10:20:31Z</time>
      </trkpt>
      <trkpt lat="49.97831" lon="2.18769">
        <ele>48.7</ele>
        <time>2013-12-22T10:20:38Z</time>
      </trkpt>
      <trkpt lat="49.97824" lon="2.1875">
        <ele>50.3</ele>
        <time>2013-12-22T10:20:45Z</time>
      </trkpt>
      <trkpt lat="49.97826" lon="2.18732">
        <ele>52.1</ele>
        <time>2013-12-22T10:20:53Z</time>
      </trkpt>
      <trkpt lat="49.97834" lon="2.18715">
        <ele>51.4</ele>
        <time>2013-12-22T10:21:03Z</time>
      </trkpt>
      <trkpt lat="49.97837" lon="2.18699">
        <ele>50.3</ele>
        <time>2013-12-22T10:21:10Z</time>
      </trkpt>
      <trkpt lat="49.97845" lon="2.18681">
        <ele>51.4</ele>
        <time>2013-12-22T10:21:16Z</time>
      </trkpt>
      <trkpt lat="49.97852" lon="2.18667">
        <ele>52.6</ele>
        <time>2013-12-22T10:21:23Z</time>
      </trkpt>
      <trkpt lat="49.97866" lon="2.18666">
        <ele>49.5</ele>
        <time>2013-12-22T10:21:32Z</time>
      </trkpt>
      <trkpt lat="49.9788" lon="2.18663">
        <ele>48.8</ele>
        <time>2013-12-22T10:21:43Z</time>
      </trkpt>
      <trkpt lat="49.97889" lon="2.18647">
        <ele>50.1</ele>
        <time>2013-12-22T10:21:55Z</time>
      </trkpt>
      <trkpt lat="49.97901" lon="2.18635">
        <ele>50.9</ele>
        <time>2013-12-22T10:22:03Z</time>
      </trkpt>
      <trkpt lat="49.97914" lon="2.18623">
        <ele>51.4</ele>
        <time>2013-12-22T10:22:10Z</time>
      </trkpt>
      <trkpt lat="49.97927" lon="2.18614">
        <ele>52.1</ele>
        <time>2013-12-22T10:22:20Z</time>
      </trkpt>
      <trkpt lat="49.97941" lon="2.18608">
        <ele>52.8</ele>
        <time>2013-12-22T10:22:30Z</time>
      </trkpt>
      <trkpt lat="49.97953" lon="2.18598">
        <ele>53.4</ele>
        <time>2013-12-22T10:22:39Z</time>
      </trkpt>
      <trkpt lat="49.97966" lon="2.18587">
        <ele>54.1</ele>
        <time>2013-12-22T10:22:49Z</time>
      </trkpt>
      <trkpt lat="49.97979" lon="2.18578">
        <ele>54.7</ele>
        <time>2013-12-22T10:22:59Z</time>
      </trkpt>
      <trkpt lat="49.97991" lon="2.18563">
        <ele>55.2</ele>
        <time>2013-12-22T10:23:08Z</time>
      </trkpt>
      <trkpt lat="49.97997" lon="2.18543">
        <ele>55.7</ele>
        <time>2013-12-22T10:23:16Z</time>
      </trkpt>
      <trkpt lat="49.98004" lon="2.18523">
        <ele>56.3</ele>
        <time>2013-12-22T10:23:26Z</time>
      </trkpt>
      <trkpt lat="49.98013" lon="2.18507">
        <ele>56.8</ele>
        <time>2013-12-22T10:23:35Z</time>
      </trkpt>
      <trkpt lat="49.98022" lon="2.18489">
        <ele>57.4</ele>
        <time>2013-12-22T10:23:45Z</time>
      </trkpt>
      <trkpt lat="49.98029" lon="2.18469">
        <ele>57.9</ele>
        <time>2013-12-22T10:23:54Z</time>
      </trkpt>
      <trkpt lat="49.98036" lon="2.1845">
        <ele>57.6</ele>
        <time>2013-12-22T10:24:03Z</time>
      </trkpt>
      <trkpt lat="49.98042" lon="2.18431">
        <ele>57</ele>
        <time>2013-12-22T10:24:14Z</time>
      </trkpt>
      <trkpt lat="49.98052" lon="2.18416">
        <ele>56.5</ele>
        <time>2013-12-22T10:24:24Z</time>
      </trkpt>
      <trkpt lat="49.98062" lon="2.184">
        <ele>55.9</ele>
        <time>2013-12-22T10:24:34Z</time>
      </trkpt>
      <trkpt lat="49.98072" lon="2.18383">
        <ele>55.4</ele>
        <time>2013-12-22T10:24:45Z</time>
      </trkpt>
      <trkpt lat="49.98082" lon="2.18367">
        <ele>55.3</ele>
        <time>2013-12-22T10:24:56Z</time>
      </trkpt>
      <trkpt lat="49.98088" lon="2.18348">
        <ele>56</ele>
        <time>2013-12-22T10:25:05Z</time>
      </trkpt>
      <trkpt lat="49.98098" lon="2.18331">
        <ele>56.7</ele>
        <time>2013-12-22T10:25:14Z</time>
      </trkpt>
      <trkpt lat="49.98107" lon="2.18313">
        <ele>57.5</ele>
        <time>2013-12-22T10:25:25Z</time>
      </trkpt>
      <trkpt lat="49.98117" lon="2.18297">
        <ele>56.9</ele>
        <time>2013-12-22T10:25:35Z</time>
      </trkpt>
      <trkpt lat="49.98129" lon="2.18286">
        <ele>55.3</ele>
        <time>2013-12-22T10:25:45Z</time>
      </trkpt>
      <trkpt lat="49.98139" lon="2.18271">
        <ele>56.3</ele>
        <time>2013-12-22T10:25:55Z</time>
      </trkpt>
      <trkpt lat="49.98145" lon="2.18251">
        <ele>57.2</ele>
        <time>2013-12-22T10:26:05Z</time>
      </trkpt>
      <trkpt lat="49.98155" lon="2.18235">
        <ele>58.2</ele>
        <time>2013-12-22T10:26:15Z</time>
      </trkpt>
      <trkpt lat="49.98162" lon="2.18217">
        <ele>59.2</ele>
        <time>2013-12-22T10:26:25Z</time>
      </trkpt>
      <trkpt lat="49.9817" lon="2.182">
        <ele>60.3</ele>
        <time>2013-12-22T10:26:35Z</time>
      </trkpt>
      <trkpt lat="49.98179" lon="2.18182">
        <ele>61.4</ele>
        <time>2013-12-22T10:26:45Z</time>
      </trkpt>
      <trkpt lat="49.98186" lon="2.18163">
        <ele>62.4</ele>
        <time>2013-12-22T10:26:54Z</time>
      </trkpt>
      <trkpt lat="49.98195" lon="2.18144">
        <ele>63.3</ele>
        <time>2013-12-22T10:27:04Z</time>
      </trkpt>
      <trkpt lat="49.98205" lon="2.18129">
        <ele>63.4</ele>
        <time>2013-12-22T10:27:14Z</time>
      </trkpt>
      <trkpt lat="49.98207" lon="2.18108">
        <ele>61.1</ele>
        <time>2013-12-22T10:27:22Z</time>
      </trkpt>
      <trkpt lat="49.98218" lon="2.18093">
        <ele>58.2</ele>
        <time>2013-12-22T10:27:32Z</time>
      </trkpt>
      <trkpt lat="49.98231" lon="2.18088">
        <ele>56.7</ele>
        <time>2013-12-22T10:27:38Z</time>
      </trkpt>
      <trkpt lat="49.98238" lon="2.18067">
        <ele>56</ele>
        <time>2013-12-22T10:27:48Z</time>
      </trkpt>
      <trkpt lat="49.98248" lon="2.18052">
        <ele>56</ele>
        <time>2013-12-22T10:27:59Z</time>
      </trkpt>
      <trkpt lat="49.98252" lon="2.1803">
        <ele>57</ele>
        <time>2013-12-22T10:28:07Z</time>
      </trkpt>
      <trkpt lat="49.98257" lon="2.1801">
        <ele>56</ele>
        <time>2013-12-22T10:28:17Z</time>
      </trkpt>
      <trkpt lat="49.98266" lon="2.1799">
        <ele>58.7</ele>
        <time>2013-12-22T10:28:28Z</time>
      </trkpt>
      <trkpt lat="49.98269" lon="2.17966">
        <ele>59.5</ele>
        <time>2013-12-22T10:28:33Z</time>
      </trkpt>
      <trkpt lat="49.98274" lon="2.17946">
        <ele>60.6</ele>
        <time>2013-12-22T10:28:41Z</time>
      </trkpt>
      <trkpt lat="49.98286" lon="2.17938">
        <ele>61.8</ele>
        <time>2013-12-22T10:28:52Z</time>
      </trkpt>
      <trkpt lat="49.98293" lon="2.17919">
        <ele>60</ele>
        <time>2013-12-22T10:29:01Z</time>
      </trkpt>
      <trkpt lat="49.98305" lon="2.17906">
        <ele>59.6</ele>
        <time>2013-12-22T10:29:12Z</time>
      </trkpt>
      <trkpt lat="49.98317" lon="2.17894">
        <ele>60.6</ele>
        <time>2013-12-22T10:29:21Z</time>
      </trkpt>
      <trkpt lat="49.98326" lon="2.17875">
        <ele>61.7</ele>
        <time>2013-12-22T10:29:31Z</time>
      </trkpt>
      <trkpt lat="49.98333" lon="2.17857">
        <ele>62.4</ele>
        <time>2013-12-22T10:29:41Z</time>
      </trkpt>
      <trkpt lat="49.98342" lon="2.17842">
        <ele>63.1</ele>
        <time>2013-12-22T10:29:52Z</time>
      </trkpt>
      <trkpt lat="49.9835" lon="2.17824">
        <ele>63.7</ele>
        <time>2013-12-22T10:30:01Z</time>
      </trkpt>
      <trkpt lat="49.98361" lon="2.17812">
        <ele>64.3</ele>
        <time>2013-12-22T10:30:11Z</time>
      </trkpt>
      <trkpt lat="49.9837" lon="2.17793">
        <ele>64.8</ele>
        <time>2013-12-22T10:30:20Z</time>
      </trkpt>
      <trkpt lat="49.98382" lon="2.17783">
        <ele>66.5</ele>
        <time>2013-12-22T10:30:29Z</time>
      </trkpt>
      <trkpt lat="49.98386" lon="2.17761">
        <ele>68.6</ele>
        <time>2013-12-22T10:30:37Z</time>
      </trkpt>
      <trkpt lat="49.98393" lon="2.17742">
        <ele>71.2</ele>
        <time>2013-12-22T10:30:47Z</time>
      </trkpt>
      <trkpt lat="49.98402" lon="2.17725">
        <ele>72.3</ele>
        <time>2013-12-22T10:30:56Z</time>
      </trkpt>
      <trkpt lat="49.98412" lon="2.1771">
        <ele>72.7</ele>
        <time>2013-12-22T10:31:07Z</time>
      </trkpt>
      <trkpt lat="49.9842" lon="2.17691">
        <ele>73.1</ele>
        <time>2013-12-22T10:31:16Z</time>
      </trkpt>
      <trkpt lat="49.98428" lon="2.17674">
        <ele>73.5</ele>
        <time>2013-12-22T10:31:25Z</time>
      </trkpt>
      <trkpt lat="49.98441" lon="2.17664">
        <ele>74</ele>
        <time>2013-12-22T10:31:35Z</time>
      </trkpt>
      <trkpt lat="49.98451" lon="2.17649">
        <ele>74.6</ele>
        <time>2013-12-22T10:31:44Z</time>
      </trkpt>
      <trkpt lat="49.98454" lon="2.17629">
        <ele>75.3</ele>
        <time>2013-12-22T10:31:52Z</time>
      </trkpt>
      <trkpt lat="49.98464" lon="2.17614">
        <ele>76.1</ele>
        <time>2013-12-22T10:32:02Z</time>
      </trkpt>
      <trkpt lat="49.98476" lon="2.17602">
        <ele>76.8</ele>
        <time>2013-12-22T10:32:12Z</time>
      </trkpt>
      <trkpt lat="49.98484" lon="2.17583">
        <ele>77.7</ele>
        <time>2013-12-22T10:32:24Z</time>
      </trkpt>
      <trkpt lat="49.98495" lon="2.17569">
        <ele>78.5</ele>
        <time>2013-12-22T10:32:34Z</time>
      </trkpt>
      <trkpt lat="49.98501" lon="2.17547">
        <ele>79.2</ele>
        <time>2013-12-22T10:32:43Z</time>
      </trkpt>
      <trkpt lat="49.98509" lon="2.17528">
        <ele>79.9</ele>
        <time>2013-12-22T10:32:53Z</time>
      </trkpt>
      <trkpt lat="49.98519" lon="2.17511">
        <ele>85.5</ele>
        <time>2013-12-22T10:33:16Z</time>
      </trkpt>
      <trkpt lat="49.98519" lon="2.17511">
        <ele>85.5</ele>
        <time>2013-12-22T10:34:55Z</time>
      </trkpt>
      <trkpt lat="49.9853" lon="2.17485">
        <ele>89.3</ele>
        <time>2013-12-22T10:35:01Z</time>
      </trkpt>
      <trkpt lat="49.9853" lon="2.17485">
        <ele>89.3</ele>
        <time>2013-12-22T10:36:59Z</time>
      </trkpt>
      <trkpt lat="49.98542" lon="2.17463">
        <ele>90.3</ele>
        <time>2013-12-22T10:37:03Z</time>
      </trkpt>
      <trkpt lat="49.98543" lon="2.17467">
        <ele>85.2</ele>
        <time>2013-12-22T10:37:10Z</time>
      </trkpt>
      <trkpt lat="49.98543" lon="2.17467">
        <ele>85.2</ele>
        <time>2013-12-22T10:39:05Z</time>
      </trkpt>
      <trkpt lat="49.98542" lon="2.17471">
        <ele>80</ele>
        <time>2013-12-22T10:39:15Z</time>
      </trkpt>
      <trkpt lat="49.98555" lon="2.17459">
        <ele>77.6</ele>
        <time>2013-12-22T10:39:29Z</time>
      </trkpt>
      <trkpt lat="49.98564" lon="2.17444">
        <ele>77.5</ele>
        <time>2013-12-22T10:39:35Z</time>
      </trkpt>
      <trkpt lat="49.9857" lon="2.17419">
        <ele>79.8</ele>
        <time>2013-12-22T10:39:48Z</time>
      </trkpt>
      <trkpt lat="49.98578" lon="2.17402">
        <ele>78.9</ele>
        <time>2013-12-22T10:40:00Z</time>
      </trkpt>
      <trkpt lat="49.98589" lon="2.17388">
        <ele>78</ele>
        <time>2013-12-22T10:40:09Z</time>
      </trkpt>
      <trkpt lat="49.98592" lon="2.17366">
        <ele>77.1</ele>
        <time>2013-12-22T10:40:18Z</time>
      </trkpt>
      <trkpt lat="49.98603" lon="2.17351">
        <ele>75.8</ele>
        <time>2013-12-22T10:40:31Z</time>
      </trkpt>
      <trkpt lat="49.98613" lon="2.17334">
        <ele>74.9</ele>
        <time>2013-12-22T10:40:39Z</time>
      </trkpt>
      <trkpt lat="49.98625" lon="2.1732">
        <ele>74</ele>
        <time>2013-12-22T10:40:48Z</time>
      </trkpt>
      <trkpt lat="49.98634" lon="2.17302">
        <ele>73.1</ele>
        <time>2013-12-22T10:40:57Z</time>
      </trkpt>
      <trkpt lat="49.98642" lon="2.17285">
        <ele>72.3</ele>
        <time>2013-12-22T10:41:05Z</time>
      </trkpt>
      <trkpt lat="49.98652" lon="2.17268">
        <ele>71.1</ele>
        <time>2013-12-22T10:41:17Z</time>
      </trkpt>
      <trkpt lat="49.98659" lon="2.17251">
        <ele>70.1</ele>
        <time>2013-12-22T10:41:27Z</time>
      </trkpt>
      <trkpt lat="49.9867" lon="2.17235">
        <ele>69</ele>
        <time>2013-12-22T10:41:38Z</time>
      </trkpt>
      <trkpt lat="49.9868" lon="2.17218">
        <ele>67.9</ele>
        <time>2013-12-22T10:41:48Z</time>
      </trkpt>
      <trkpt lat="49.98689" lon="2.17203">
        <ele>67.4</ele>
        <time>2013-12-22T10:41:53Z</time>
      </trkpt>
      <trkpt lat="49.98698" lon="2.17185">
        <ele>67.5</ele>
        <time>2013-12-22T10:42:00Z</time>
      </trkpt>
      <trkpt lat="49.98707" lon="2.17169">
        <ele>68.1</ele>
        <time>2013-12-22T10:42:08Z</time>
      </trkpt>
      <trkpt lat="49.98716" lon="2.17151">
        <ele>68.2</ele>
        <time>2013-12-22T10:42:15Z</time>
      </trkpt>
      <trkpt lat="49.98726" lon="2.17133">
        <ele>68.3</ele>
        <time>2013-12-22T10:42:24Z</time>
      </trkpt>
      <trkpt lat="49.98734" lon="2.17115">
        <ele>68.5</ele>
        <time>2013-12-22T10:42:33Z</time>
      </trkpt>
      <trkpt lat="49.98745" lon="2.17101">
        <ele>68.6</ele>
        <time>2013-12-22T10:42:42Z</time>
      </trkpt>
      <trkpt lat="49.98755" lon="2.17086">
        <ele>68.8</ele>
        <time>2013-12-22T10:42:52Z</time>
      </trkpt>
      <trkpt lat="49.98769" lon="2.17092">
        <ele>68.9</ele>
        <time>2013-12-22T10:43:02Z</time>
      </trkpt>
      <trkpt lat="49.98782" lon="2.17098">
        <ele>69.5</ele>
        <time>2013-12-22T10:43:12Z</time>
      </trkpt>
      <trkpt lat="49.98797" lon="2.17101">
        <ele>70.1</ele>
        <time>2013-12-22T10:43:21Z</time>
      </trkpt>
      <trkpt lat="49.9881" lon="2.1711">
        <ele>71</ele>
        <time>2013-12-22T10:43:34Z</time>
      </trkpt>
      <trkpt lat="49.98822" lon="2.17119">
        <ele>71.5</ele>
        <time>2013-12-22T10:43:41Z</time>
      </trkpt>
      <trkpt lat="49.98836" lon="2.1712">
        <ele>71.9</ele>
        <time>2013-12-22T10:43:50Z</time>
      </trkpt>
      <trkpt lat="49.98849" lon="2.17127">
        <ele>71.3</ele>
        <time>2013-12-22T10:44:01Z</time>
      </trkpt>
      <trkpt lat="49.98862" lon="2.17135">
        <ele>70.7</ele>
        <time>2013-12-22T10:44:12Z</time>
      </trkpt>
      <trkpt lat="49.98875" lon="2.17144">
        <ele>70.2</ele>
        <time>2013-12-22T10:44:21Z</time>
      </trkpt>
      <trkpt lat="49.98888" lon="2.17152">
        <ele>69.6</ele>
        <time>2013-12-22T10:44:32Z</time>
      </trkpt>
      <trkpt lat="49.98903" lon="2.17155">
        <ele>69.1</ele>
        <time>2013-12-22T10:44:43Z</time>
      </trkpt>
      <trkpt lat="49.98915" lon="2.17166">
        <ele>70.1</ele>
        <time>2013-12-22T10:44:54Z</time>
      </trkpt>
      <trkpt lat="49.98931" lon="2.17169">
        <ele>71</ele>
        <time>2013-12-22T10:45:03Z</time>
      </trkpt>
      <trkpt lat="49.98944" lon="2.17179">
        <ele>71.9</ele>
        <time>2013-12-22T10:45:11Z</time>
      </trkpt>
      <trkpt lat="49.98954" lon="2.17193">
        <ele>74.7</ele>
        <time>2013-12-22T10:45:23Z</time>
      </trkpt>
      <trkpt lat="49.98967" lon="2.17203">
        <ele>75.3</ele>
        <time>2013-12-22T10:45:34Z</time>
      </trkpt>
      <trkpt lat="49.98981" lon="2.17208">
        <ele>74.3</ele>
        <time>2013-12-22T10:45:43Z</time>
      </trkpt>
      <trkpt lat="49.98992" lon="2.17221">
        <ele>73.1</ele>
        <time>2013-12-22T10:45:54Z</time>
      </trkpt>
      <trkpt lat="49.99005" lon="2.17228">
        <ele>74.4</ele>
        <time>2013-12-22T10:46:03Z</time>
      </trkpt>
      <trkpt lat="49.99019" lon="2.17232">
        <ele>76.2</ele>
        <time>2013-12-22T10:46:13Z</time>
      </trkpt>
      <trkpt lat="49.99031" lon="2.17235">
        <ele>77.2</ele>
        <time>2013-12-22T10:46:19Z</time>
      </trkpt>
      <trkpt lat="49.99044" lon="2.17238">
        <ele>78.9</ele>
        <time>2013-12-22T10:46:29Z</time>
      </trkpt>
      <trkpt lat="49.99057" lon="2.17246">
        <ele>80</ele>
        <time>2013-12-22T10:46:36Z</time>
      </trkpt>
      <trkpt lat="49.99069" lon="2.17259">
        <ele>80.7</ele>
        <time>2013-12-22T10:46:50Z</time>
      </trkpt>
      <trkpt lat="49.99082" lon="2.17268">
        <ele>81.2</ele>
        <time>2013-12-22T10:46:59Z</time>
      </trkpt>
      <trkpt lat="49.99095" lon="2.17271">
        <ele>81.6</ele>
        <time>2013-12-22T10:47:07Z</time>
      </trkpt>
      <trkpt lat="49.99109" lon="2.1728">
        <ele>82.2</ele>
        <time>2013-12-22T10:47:20Z</time>
      </trkpt>
      <trkpt lat="49.99122" lon="2.17284">
        <ele>82.7</ele>
        <time>2013-12-22T10:47:29Z</time>
      </trkpt>
      <trkpt lat="49.99135" lon="2.17293">
        <ele>83.3</ele>
        <time>2013-12-22T10:47:37Z</time>
      </trkpt>
      <trkpt lat="49.99142" lon="2.17302">
        <ele>85.3</ele>
        <time>2013-12-22T10:47:44Z</time>
      </trkpt>
      <trkpt lat="49.99156" lon="2.173">
        <ele>87.7</ele>
        <time>2013-12-22T10:47:52Z</time>
      </trkpt>
      <trkpt lat="49.9917" lon="2.17308">
        <ele>88.5</ele>
        <time>2013-12-22T10:48:04Z</time>
      </trkpt>
      <trkpt lat="49.99182" lon="2.17321">
        <ele>88.9</ele>
        <time>2013-12-22T10:48:13Z</time>
      </trkpt>
      <trkpt lat="49.99194" lon="2.17334">
        <ele>89.4</ele>
        <time>2013-12-22T10:48:24Z</time>
      </trkpt>
      <trkpt lat="49.99208" lon="2.17339">
        <ele>90</ele>
        <time>2013-12-22T10:48:35Z</time>
      </trkpt>
      <trkpt lat="49.99223" lon="2.17338">
        <ele>90.8</ele>
        <time>2013-12-22T10:48:47Z</time>
      </trkpt>
      <trkpt lat="49.99237" lon="2.17347">
        <ele>91.4</ele>
        <time>2013-12-22T10:48:55Z</time>
      </trkpt>
      <trkpt lat="49.9925" lon="2.1735">
        <ele>92.4</ele>
        <time>2013-12-22T10:49:08Z</time>
      </trkpt>
      <trkpt lat="49.99264" lon="2.17346">
        <ele>92.8</ele>
        <time>2013-12-22T10:49:18Z</time>
      </trkpt>
      <trkpt lat="49.99276" lon="2.17334">
        <ele>92.2</ele>
        <time>2013-12-22T10:49:24Z</time>
      </trkpt>
      <trkpt lat="49.99286" lon="2.1735">
        <ele>91.3</ele>
        <time>2013-12-22T10:49:33Z</time>
      </trkpt>
      <trkpt lat="49.99296" lon="2.17365">
        <ele>90.7</ele>
        <time>2013-12-22T10:49:40Z</time>
      </trkpt>
      <trkpt lat="49.9931" lon="2.17374">
        <ele>90.7</ele>
        <time>2013-12-22T10:49:51Z</time>
      </trkpt>
      <trkpt lat="49.9932" lon="2.17386">
        <ele>92.4</ele>
        <time>2013-12-22T10:50:00Z</time>
      </trkpt>
      <trkpt lat="49.99334" lon="2.17385">
        <ele>93.9</ele>
        <time>2013-12-22T10:50:10Z</time>
      </trkpt>
      <trkpt lat="49.99347" lon="2.17389">
        <ele>93.2</ele>
        <time>2013-12-22T10:50:18Z</time>
      </trkpt>
      <trkpt lat="49.99358" lon="2.17375">
        <ele>92.4</ele>
        <time>2013-12-22T10:50:27Z</time>
      </trkpt>
      <trkpt lat="49.99365" lon="2.17375">
        <ele>91.9</ele>
        <time>2013-12-22T10:50:33Z</time>
      </trkpt>
      <trkpt lat="49.99376" lon="2.1739">
        <ele>91.2</ele>
        <time>2013-12-22T10:50:41Z</time>
      </trkpt>
      <trkpt lat="49.9939" lon="2.17393">
        <ele>91.4</ele>
        <time>2013-12-22T10:50:51Z</time>
      </trkpt>
      <trkpt lat="49.99402" lon="2.17403">
        <ele>91.9</ele>
        <time>2013-12-22T10:51:01Z</time>
      </trkpt>
      <trkpt lat="49.99417" lon="2.17402">
        <ele>92.5</ele>
        <time>2013-12-22T10:51:12Z</time>
      </trkpt>
      <trkpt lat="49.9943" lon="2.17396">
        <ele>92.8</ele>
        <time>2013-12-22T10:51:19Z</time>
      </trkpt>
      <trkpt lat="49.99444" lon="2.17399">
        <ele>93.4</ele>
        <time>2013-12-22T10:51:31Z</time>
      </trkpt>
      <trkpt lat="49.99458" lon="2.17395">
        <ele>94</ele>
        <time>2013-12-22T10:51:43Z</time>
      </trkpt>
      <trkpt lat="49.99473" lon="2.17397">
        <ele>98.4</ele>
        <time>2013-12-22T10:51:54Z</time>
      </trkpt>
      <trkpt lat="49.99485" lon="2.17388">
        <ele>101.2</ele>
        <time>2013-12-22T10:52:05Z</time>
      </trkpt>
      <trkpt lat="49.99498" lon="2.17392">
        <ele>100.8</ele>
        <time>2013-12-22T10:52:24Z</time>
      </trkpt>
      <trkpt lat="49.99513" lon="2.17399">
        <ele>97.6</ele>
        <time>2013-12-22T10:52:36Z</time>
      </trkpt>
      <trkpt lat="49.99527" lon="2.17407">
        <ele>98.4</ele>
        <time>2013-12-22T10:52:46Z</time>
      </trkpt>
      <trkpt lat="49.9954" lon="2.17404">
        <ele>99.6</ele>
        <time>2013-12-22T10:52:53Z</time>
      </trkpt>
      <trkpt lat="49.99554" lon="2.17398">
        <ele>101</ele>
        <time>2013-12-22T10:53:01Z</time>
      </trkpt>
      <trkpt lat="49.99569" lon="2.17398">
        <ele>103.6</ele>
        <time>2013-12-22T10:53:13Z</time>
      </trkpt>
      <trkpt lat="49.99582" lon="2.17389">
        <ele>106</ele>
        <time>2013-12-22T10:53:23Z</time>
      </trkpt>
      <trkpt lat="49.99596" lon="2.17382">
        <ele>107.9</ele>
        <time>2013-12-22T10:53:32Z</time>
      </trkpt>
      <trkpt lat="49.99608" lon="2.17372">
        <ele>106.7</ele>
        <time>2013-12-22T10:53:46Z</time>
      </trkpt>
      <trkpt lat="49.99621" lon="2.17365">
        <ele>105.9</ele>
        <time>2013-12-22T10:53:55Z</time>
      </trkpt>
      <trkpt lat="49.99633" lon="2.17353">
        <ele>105.2</ele>
        <time>2013-12-22T10:54:03Z</time>
      </trkpt>
      <trkpt lat="49.99645" lon="2.17342">
        <ele>105.9</ele>
        <time>2013-12-22T10:54:17Z</time>
      </trkpt>
      <trkpt lat="49.99656" lon="2.1733">
        <ele>106.5</ele>
        <time>2013-12-22T10:54:25Z</time>
      </trkpt>
      <trkpt lat="49.99671" lon="2.17325">
        <ele>107.6</ele>
        <time>2013-12-22T10:54:39Z</time>
      </trkpt>
      <trkpt lat="49.99684" lon="2.17318">
        <ele>107.8</ele>
        <time>2013-12-22T10:54:42Z</time>
      </trkpt>
      <trkpt lat="49.99696" lon="2.17308">
        <ele>108.1</ele>
        <time>2013-12-22T10:54:45Z</time>
      </trkpt>
      <trkpt lat="49.99706" lon="2.17293">
        <ele>108.6</ele>
        <time>2013-12-22T10:54:52Z</time>
      </trkpt>
      <trkpt lat="49.99715" lon="2.17276">
        <ele>109.7</ele>
        <time>2013-12-22T10:55:05Z</time>
      </trkpt>
      <trkpt lat="49.99728" lon="2.17269">
        <ele>110.2</ele>
        <time>2013-12-22T10:55:11Z</time>
      </trkpt>
      <trkpt lat="49.99752" lon="2.17266">
        <ele>107</ele>
        <time>2013-12-22T10:55:28Z</time>
      </trkpt>
      <trkpt lat="49.99752" lon="2.17266">
        <ele>107</ele>
        <time>2013-12-22T10:57:21Z</time>
      </trkpt>
      <trkpt lat="49.99763" lon="2.17271">
        <ele>103</ele>
        <time>2013-12-22T10:57:23Z</time>
      </trkpt>
      <trkpt lat="49.9977" lon="2.17292">
        <ele>102.1</ele>
        <time>2013-12-22T10:57:38Z</time>
      </trkpt>
      <trkpt lat="49.99776" lon="2.17312">
        <ele>103.1</ele>
        <time>2013-12-22T10:57:49Z</time>
      </trkpt>
      <trkpt lat="49.99784" lon="2.17329">
        <ele>104.1</ele>
        <time>2013-12-22T10:57:58Z</time>
      </trkpt>
      <trkpt lat="49.99793" lon="2.17345">
        <ele>104.7</ele>
        <time>2013-12-22T10:58:07Z</time>
      </trkpt>
      <trkpt lat="49.99802" lon="2.17361">
        <ele>105.4</ele>
        <time>2013-12-22T10:58:16Z</time>
      </trkpt>
      <trkpt lat="49.99808" lon="2.17383">
        <ele>106.1</ele>
        <time>2013-12-22T10:58:27Z</time>
      </trkpt>
      <trkpt lat="49.99816" lon="2.17402">
        <ele>106.8</ele>
        <time>2013-12-22T10:58:36Z</time>
      </trkpt>
      <trkpt lat="49.99825" lon="2.17418">
        <ele>107.5</ele>
        <time>2013-12-22T10:58:46Z</time>
      </trkpt>
      <trkpt lat="49.99835" lon="2.17432">
        <ele>108.1</ele>
        <time>2013-12-22T10:58:56Z</time>
      </trkpt>
      <trkpt lat="49.99841" lon="2.17452">
        <ele>108.6</ele>
        <time>2013-12-22T10:59:03Z</time>
      </trkpt>
      <trkpt lat="49.99853" lon="2.17464">
        <ele>109.2</ele>
        <time>2013-12-22T10:59:12Z</time>
      </trkpt>
      <trkpt lat="49.99862" lon="2.17479">
        <ele>109.9</ele>
        <time>2013-12-22T10:59:22Z</time>
      </trkpt>
      <trkpt lat="49.99871" lon="2.17497">
        <ele>109.5</ele>
        <time>2013-12-22T10:59:33Z</time>
      </trkpt>
      <trkpt lat="49.99878" lon="2.17516">
        <ele>109</ele>
        <time>2013-12-22T10:59:43Z</time>
      </trkpt>
      <trkpt lat="49.99889" lon="2.17529">
        <ele>107.9</ele>
        <time>2013-12-22T11:00:02Z</time>
      </trkpt>
      <trkpt lat="49.99895" lon="2.17548">
        <ele>107.5</ele>
        <time>2013-12-22T11:00:09Z</time>
      </trkpt>
      <trkpt lat="49.99905" lon="2.17566">
        <ele>107.1</ele>
        <time>2013-12-22T11:00:18Z</time>
      </trkpt>
      <trkpt lat="49.99914" lon="2.17584">
        <ele>110.8</ele>
        <time>2013-12-22T11:00:27Z</time>
      </trkpt>
      <trkpt lat="49.99922" lon="2.17601">
        <ele>107.7</ele>
        <time>2013-12-22T11:00:37Z</time>
      </trkpt>
      <trkpt lat="49.9993" lon="2.1762">
        <ele>105</ele>
        <time>2013-12-22T11:00:47Z</time>
      </trkpt>
      <trkpt lat="49.99935" lon="2.17641">
        <ele>107.3</ele>
        <time>2013-12-22T11:00:57Z</time>
      </trkpt>
      <trkpt lat="49.99946" lon="2.17656">
        <ele>109.5</ele>
        <time>2013-12-22T11:01:07Z</time>
      </trkpt>
      <trkpt lat="49.99957" lon="2.17669">
        <ele>109.4</ele>
        <time>2013-12-22T11:01:15Z</time>
      </trkpt>
      <trkpt lat="49.99965" lon="2.17688">
        <ele>108.5</ele>
        <time>2013-12-22T11:01:24Z</time>
      </trkpt>
      <trkpt lat="49.99973" lon="2.17707">
        <ele>107.2</ele>
        <time>2013-12-22T11:01:36Z</time>
      </trkpt>
      <trkpt lat="49.99979" lon="2.17726">
        <ele>106.2</ele>
        <time>2013-12-22T11:01:46Z</time>
      </trkpt>
      <trkpt lat="49.99989" lon="2.17742">
        <ele>110</ele>
        <time>2013-12-22T11:01:56Z</time>
      </trkpt>
      <trkpt lat="49.99997" lon="2.17765">
        <ele>107.9</ele>
        <time>2013-12-22T11:02:05Z</time>
      </trkpt>
      <trkpt lat="50.00002" lon="2.17786">
        <ele>106.8</ele>
        <time>2013-12-22T11:02:19Z</time>
      </trkpt>
      <trkpt lat="50.00009" lon="2.17804">
        <ele>106.1</ele>
        <time>2013-12-22T11:02:28Z</time>
      </trkpt>
      <trkpt lat="50.00014" lon="2.17825">
        <ele>105.4</ele>
        <time>2013-12-22T11:02:38Z</time>
      </trkpt>
      <trkpt lat="50.00019" lon="2.17846">
        <ele>104.3</ele>
        <time>2013-12-22T11:02:48Z</time>
      </trkpt>
      <trkpt lat="50.00023" lon="2.17866">
        <ele>102.8</ele>
        <time>2013-12-22T11:03:00Z</time>
      </trkpt>
      <trkpt lat="50.00026" lon="2.17888">
        <ele>101.6</ele>
        <time>2013-12-22T11:03:10Z</time>
      </trkpt>
      <trkpt lat="50.0003" lon="2.17909">
        <ele>100.3</ele>
        <time>2013-12-22T11:03:20Z</time>
      </trkpt>
      <trkpt lat="50.00036" lon="2.17929">
        <ele>99.6</ele>
        <time>2013-12-22T11:03:30Z</time>
      </trkpt>
      <trkpt lat="50.00043" lon="2.1795">
        <ele>101.6</ele>
        <time>2013-12-22T11:03:41Z</time>
      </trkpt>
      <trkpt lat="50.00052" lon="2.17967">
        <ele>100.5</ele>
        <time>2013-12-22T11:03:49Z</time>
      </trkpt>
      <trkpt lat="50.00054" lon="2.17987">
        <ele>99.3</ele>
        <time>2013-12-22T11:03:59Z</time>
      </trkpt>
      <trkpt lat="50.00052" lon="2.18008">
        <ele>97</ele>
        <time>2013-12-22T11:04:11Z</time>
      </trkpt>
      <trkpt lat="50.00062" lon="2.18029">
        <ele>101.3</ele>
        <time>2013-12-22T11:04:19Z</time>
      </trkpt>
      <trkpt lat="50.00071" lon="2.18048">
        <ele>102.8</ele>
        <time>2013-12-22T11:04:28Z</time>
      </trkpt>
      <trkpt lat="50.00072" lon="2.18071">
        <ele>101.6</ele>
        <time>2013-12-22T11:04:41Z</time>
      </trkpt>
      <trkpt lat="50.00078" lon="2.18091">
        <ele>100.3</ele>
        <time>2013-12-22T11:04:50Z</time>
      </trkpt>
      <trkpt lat="50.00086" lon="2.18108">
        <ele>100.9</ele>
        <time>2013-12-22T11:05:00Z</time>
      </trkpt>
      <trkpt lat="50.00095" lon="2.18126">
        <ele>101.5</ele>
        <time>2013-12-22T11:05:10Z</time>
      </trkpt>
      <trkpt lat="50.00103" lon="2.18144">
        <ele>102</ele>
        <time>2013-12-22T11:05:19Z</time>
      </trkpt>
      <trkpt lat="50.00114" lon="2.18156">
        <ele>102.5</ele>
        <time>2013-12-22T11:05:28Z</time>
      </trkpt>
      <trkpt lat="50.00121" lon="2.18176">
        <ele>103.2</ele>
        <time>2013-12-22T11:05:40Z</time>
      </trkpt>
      <trkpt lat="50.00132" lon="2.18192">
        <ele>103.8</ele>
        <time>2013-12-22T11:05:49Z</time>
      </trkpt>
      <trkpt lat="50.00139" lon="2.1821">
        <ele>104.4</ele>
        <time>2013-12-22T11:05:59Z</time>
      </trkpt>
      <trkpt lat="50.00146" lon="2.18229">
        <ele>105.3</ele>
        <time>2013-12-22T11:06:12Z</time>
      </trkpt>
      <trkpt lat="50.00154" lon="2.18247">
        <ele>105.8</ele>
        <time>2013-12-22T11:06:20Z</time>
      </trkpt>
      <trkpt lat="50.00164" lon="2.18264">
        <ele>106.5</ele>
        <time>2013-12-22T11:06:30Z</time>
      </trkpt>
      <trkpt lat="50.00172" lon="2.18281">
        <ele>107.5</ele>
        <time>2013-12-22T11:06:43Z</time>
      </trkpt>
      <trkpt lat="50.00181" lon="2.18298">
        <ele>108.2</ele>
        <time>2013-12-22T11:06:51Z</time>
      </trkpt>
      <trkpt lat="50.0019" lon="2.18314">
        <ele>108.9</ele>
        <time>2013-12-22T11:06:59Z</time>
      </trkpt>
      <trkpt lat="50.00199" lon="2.18331">
        <ele>109.7</ele>
        <time>2013-12-22T11:07:08Z</time>
      </trkpt>
      <trkpt lat="50.0021" lon="2.18345">
        <ele>108.8</ele>
        <time>2013-12-22T11:07:16Z</time>
      </trkpt>
      <trkpt lat="50.00214" lon="2.18365">
        <ele>105.8</ele>
        <time>2013-12-22T11:07:26Z</time>
      </trkpt>
      <trkpt lat="50.00225" lon="2.18378">
        <ele>105.6</ele>
        <time>2013-12-22T11:07:34Z</time>
      </trkpt>
      <trkpt lat="50.00236" lon="2.18393">
        <ele>106.4</ele>
        <time>2013-12-22T11:07:41Z</time>
      </trkpt>
      <trkpt lat="50.00246" lon="2.18411">
        <ele>107.5</ele>
        <time>2013-12-22T11:07:51Z</time>
      </trkpt>
      <trkpt lat="50.00252" lon="2.1843">
        <ele>104</ele>
        <time>2013-12-22T11:08:01Z</time>
      </trkpt>
      <trkpt lat="50.00257" lon="2.18444">
        <ele>102.7</ele>
        <time>2013-12-22T11:08:08Z</time>
      </trkpt>
      <trkpt lat="50.00268" lon="2.18457">
        <ele>102.5</ele>
        <time>2013-12-22T11:08:15Z</time>
      </trkpt>
      <trkpt lat="50.00277" lon="2.18475">
        <ele>106.3</ele>
        <time>2013-12-22T11:08:27Z</time>
      </trkpt>
      <trkpt lat="50.00288" lon="2.18488">
        <ele>107.9</ele>
        <time>2013-12-22T11:08:35Z</time>
      </trkpt>
      <trkpt lat="50.00298" lon="2.18506">
        <ele>109.1</ele>
        <time>2013-12-22T11:08:43Z</time>
      </trkpt>
      <trkpt lat="50.00306" lon="2.18525">
        <ele>110.6</ele>
        <time>2013-12-22T11:08:53Z</time>
      </trkpt>
      <trkpt lat="50.00316" lon="2.1854">
        <ele>108.5</ele>
        <time>2013-12-22T11:09:01Z</time>
      </trkpt>
      <trkpt lat="50.00326" lon="2.18556">
        <ele>106.4</ele>
        <time>2013-12-22T11:09:10Z</time>
      </trkpt>
      <trkpt lat="50.00329" lon="2.1857">
        <ele>107.1</ele>
        <time>2013-12-22T11:09:17Z</time>
      </trkpt>
      <trkpt lat="50.00327" lon="2.1858">
        <ele>107.6</ele>
        <time>2013-12-22T11:09:22Z</time>
      </trkpt>
      <trkpt lat="50.00338" lon="2.18593">
        <ele>108.6</ele>
        <time>2013-12-22T11:09:31Z</time>
      </trkpt>
      <trkpt lat="50.00346" lon="2.18611">
        <ele>109.3</ele>
        <time>2013-12-22T11:09:38Z</time>
      </trkpt>
      <trkpt lat="50.00356" lon="2.18627">
        <ele>107</ele>
        <time>2013-12-22T11:09:51Z</time>
      </trkpt>
      <trkpt lat="50.00367" lon="2.18644">
        <ele>104</ele>
        <time>2013-12-22T11:10:01Z</time>
      </trkpt>
      <trkpt lat="50.00376" lon="2.18661">
        <ele>105.6</ele>
        <time>2013-12-22T11:10:11Z</time>
      </trkpt>
      <trkpt lat="50.00381" lon="2.18681">
        <ele>107.2</ele>
        <time>2013-12-22T11:10:20Z</time>
      </trkpt>
      <trkpt lat="50.0039" lon="2.18698">
        <ele>108.6</ele>
        <time>2013-12-22T11:10:28Z</time>
      </trkpt>
      <trkpt lat="50.00401" lon="2.1871">
        <ele>110.2</ele>
        <time>2013-12-22T11:10:36Z</time>
      </trkpt>
      <trkpt lat="50.00411" lon="2.18724">
        <ele>110.7</ele>
        <time>2013-12-22T11:10:44Z</time>
      </trkpt>
      <trkpt lat="50.00417" lon="2.18743">
        <ele>110</ele>
        <time>2013-12-22T11:10:55Z</time>
      </trkpt>
      <trkpt lat="50.00427" lon="2.18758">
        <ele>109.4</ele>
        <time>2013-12-22T11:11:04Z</time>
      </trkpt>
      <trkpt lat="50.00435" lon="2.18777">
        <ele>108.8</ele>
        <time>2013-12-22T11:11:14Z</time>
      </trkpt>
      <trkpt lat="50.00444" lon="2.18793">
        <ele>108.2</ele>
        <time>2013-12-22T11:11:23Z</time>
      </trkpt>
      <trkpt lat="50.00454" lon="2.1881">
        <ele>105.8</ele>
        <time>2013-12-22T11:11:34Z</time>
      </trkpt>
      <trkpt lat="50.00462" lon="2.18827">
        <ele>105.3</ele>
        <time>2013-12-22T11:11:43Z</time>
      </trkpt>
      <trkpt lat="50.00472" lon="2.18845">
        <ele>105.7</ele>
        <time>2013-12-22T11:11:52Z</time>
      </trkpt>
      <trkpt lat="50.00485" lon="2.18854">
        <ele>106.2</ele>
        <time>2013-12-22T11:12:02Z</time>
      </trkpt>
      <trkpt lat="50.00494" lon="2.18871">
        <ele>106.7</ele>
        <time>2013-12-22T11:12:12Z</time>
      </trkpt>
      <trkpt lat="50.00506" lon="2.18884">
        <ele>107.3</ele>
        <time>2013-12-22T11:12:23Z</time>
      </trkpt>
      <trkpt lat="50.00519" lon="2.18885">
        <ele>107.6</ele>
        <time>2013-12-22T11:12:30Z</time>
      </trkpt>
      <trkpt lat="50.00534" lon="2.18887">
        <ele>107.8</ele>
        <time>2013-12-22T11:12:34Z</time>
      </trkpt>
      <trkpt lat="50.00538" lon="2.18891">
        <ele>108</ele>
        <time>2013-12-22T11:12:37Z</time>
      </trkpt>
      <trkpt lat="50.00546" lon="2.1891">
        <ele>111.6</ele>
        <time>2013-12-22T11:12:46Z</time>
      </trkpt>
      <trkpt lat="50.00558" lon="2.18923">
        <ele>110.1</ele>
        <time>2013-12-22T11:12:58Z</time>
      </trkpt>
      <trkpt lat="50.00569" lon="2.18935">
        <ele>110.4</ele>
        <time>2013-12-22T11:13:10Z</time>
      </trkpt>
      <trkpt lat="50.00581" lon="2.18946">
        <ele>113.6</ele>
        <time>2013-12-22T11:13:19Z</time>
      </trkpt>
      <trkpt lat="50.00591" lon="2.18961">
        <ele>111.9</ele>
        <time>2013-12-22T11:13:34Z</time>
      </trkpt>
      <trkpt lat="50.00597" lon="2.18973">
        <ele>110</ele>
        <time>2013-12-22T11:13:41Z</time>
      </trkpt>
      <trkpt lat="50.0061" lon="2.18978">
        <ele>113</ele>
        <time>2013-12-22T11:13:47Z</time>
      </trkpt>
      <trkpt lat="50.00623" lon="2.18988">
        <ele>112.5</ele>
        <time>2013-12-22T11:13:55Z</time>
      </trkpt>
      <trkpt lat="50.00634" lon="2.19">
        <ele>112</ele>
        <time>2013-12-22T11:14:04Z</time>
      </trkpt>
      <trkpt lat="50.00646" lon="2.1901">
        <ele>111.3</ele>
        <time>2013-12-22T11:14:14Z</time>
      </trkpt>
      <trkpt lat="50.00657" lon="2.19024">
        <ele>110.8</ele>
        <time>2013-12-22T11:14:23Z</time>
      </trkpt>
      <trkpt lat="50.0067" lon="2.19035">
        <ele>110.2</ele>
        <time>2013-12-22T11:14:33Z</time>
      </trkpt>
      <trkpt lat="50.00684" lon="2.19044">
        <ele>110.2</ele>
        <time>2013-12-22T11:14:42Z</time>
      </trkpt>
      <trkpt lat="50.00697" lon="2.19054">
        <ele>110.4</ele>
        <time>2013-12-22T11:14:52Z</time>
      </trkpt>
      <trkpt lat="50.0071" lon="2.19062">
        <ele>110.7</ele>
        <time>2013-12-22T11:15:04Z</time>
      </trkpt>
      <trkpt lat="50.00721" lon="2.19076">
        <ele>111</ele>
        <time>2013-12-22T11:15:13Z</time>
      </trkpt>
      <trkpt lat="50.00734" lon="2.19088">
        <ele>111.2</ele>
        <time>2013-12-22T11:15:22Z</time>
      </trkpt>
      <trkpt lat="50.00746" lon="2.191">
        <ele>111.4</ele>
        <time>2013-12-22T11:15:32Z</time>
      </trkpt>
      <trkpt lat="50.00758" lon="2.19115">
        <ele>111.7</ele>
        <time>2013-12-22T11:15:41Z</time>
      </trkpt>
      <trkpt lat="50.00766" lon="2.19132">
        <ele>112</ele>
        <time>2013-12-22T11:15:53Z</time>
      </trkpt>
      <trkpt lat="50.00778" lon="2.19148">
        <ele>112.2</ele>
        <time>2013-12-22T11:16:01Z</time>
      </trkpt>
      <trkpt lat="50.00785" lon="2.19166">
        <ele>112.4</ele>
        <time>2013-12-22T11:16:10Z</time>
      </trkpt>
      <trkpt lat="50.00791" lon="2.19186">
        <ele>112.7</ele>
        <time>2013-12-22T11:16:21Z</time>
      </trkpt>
      <trkpt lat="50.00799" lon="2.19204">
        <ele>113</ele>
        <time>2013-12-22T11:16:32Z</time>
      </trkpt>
      <trkpt lat="50.00809" lon="2.19219">
        <ele>113.9</ele>
        <time>2013-12-22T11:16:41Z</time>
      </trkpt>
      <trkpt lat="50.00817" lon="2.19239">
        <ele>114.7</ele>
        <time>2013-12-22T11:16:49Z</time>
      </trkpt>
      <trkpt lat="50.00824" lon="2.19254">
        <ele>115.5</ele>
        <time>2013-12-22T11:16:58Z</time>
      </trkpt>
      <trkpt lat="50.00835" lon="2.19267">
        <ele>116.5</ele>
        <time>2013-12-22T11:17:08Z</time>
      </trkpt>
      <trkpt lat="50.0084" lon="2.19287">
        <ele>117.5</ele>
        <time>2013-12-22T11:17:18Z</time>
      </trkpt>
      <trkpt lat="50.00852" lon="2.19303">
        <ele>118.7</ele>
        <time>2013-12-22T11:17:29Z</time>
      </trkpt>
      <trkpt lat="50.00863" lon="2.19319">
        <ele>119.9</ele>
        <time>2013-12-22T11:17:38Z</time>
      </trkpt>
      <trkpt lat="50.00873" lon="2.19334">
        <ele>121.1</ele>
        <time>2013-12-22T11:17:48Z</time>
      </trkpt>
      <trkpt lat="50.00883" lon="2.19352">
        <ele>122</ele>
        <time>2013-12-22T11:17:58Z</time>
      </trkpt>
      <trkpt lat="50.00891" lon="2.19369">
        <ele>121.7</ele>
        <time>2013-12-22T11:18:08Z</time>
      </trkpt>
      <trkpt lat="50.00904" lon="2.19376">
        <ele>120</ele>
        <time>2013-12-22T11:18:16Z</time>
      </trkpt>
      <trkpt lat="50.00916" lon="2.19384">
        <ele>118.3</ele>
        <time>2013-12-22T11:18:23Z</time>
      </trkpt>
      <trkpt lat="50.00927" lon="2.19397">
        <ele>116.5</ele>
        <time>2013-12-22T11:18:35Z</time>
      </trkpt>
      <trkpt lat="50.00939" lon="2.19408">
        <ele>115.7</ele>
        <time>2013-12-22T11:18:47Z</time>
      </trkpt>
      <trkpt lat="50.00953" lon="2.19412">
        <ele>119.5</ele>
        <time>2013-12-22T11:18:56Z</time>
      </trkpt>
      <trkpt lat="50.00966" lon="2.1942">
        <ele>120.8</ele>
        <time>2013-12-22T11:19:06Z</time>
      </trkpt>
      <trkpt lat="50.00979" lon="2.19427">
        <ele>120.9</ele>
        <time>2013-12-22T11:19:19Z</time>
      </trkpt>
      <trkpt lat="50.00991" lon="2.19437">
        <ele>118.9</ele>
        <time>2013-12-22T11:19:27Z</time>
      </trkpt>
      <trkpt lat="50.01005" lon="2.19443">
        <ele>118.2</ele>
        <time>2013-12-22T11:19:35Z</time>
      </trkpt>
      <trkpt lat="50.01018" lon="2.19452">
        <ele>117.5</ele>
        <time>2013-12-22T11:19:43Z</time>
      </trkpt>
      <trkpt lat="50.01031" lon="2.19458">
        <ele>116.9</ele>
        <time>2013-12-22T11:19:51Z</time>
      </trkpt>
      <trkpt lat="50.01041" lon="2.19471">
        <ele>116</ele>
        <time>2013-12-22T11:20:01Z</time>
      </trkpt>
      <trkpt lat="50.01051" lon="2.19486">
        <ele>113.8</ele>
        <time>2013-12-22T11:20:12Z</time>
      </trkpt>
      <trkpt lat="50.01064" lon="2.19494">
        <ele>114.2</ele>
        <time>2013-12-22T11:20:23Z</time>
      </trkpt>
      <trkpt lat="50.01078" lon="2.19496">
        <ele>114.8</ele>
        <time>2013-12-22T11:20:31Z</time>
      </trkpt>
      <trkpt lat="50.01091" lon="2.19505">
        <ele>114.3</ele>
        <time>2013-12-22T11:20:43Z</time>
      </trkpt>
      <trkpt lat="50.01104" lon="2.19512">
        <ele>113.5</ele>
        <time>2013-12-22T11:20:54Z</time>
      </trkpt>
      <trkpt lat="50.01118" lon="2.19514">
        <ele>111.1</ele>
        <time>2013-12-22T11:21:04Z</time>
      </trkpt>
      <trkpt lat="50.01132" lon="2.1952">
        <ele>111.5</ele>
        <time>2013-12-22T11:21:16Z</time>
      </trkpt>
      <trkpt lat="50.01146" lon="2.19513">
        <ele>113.1</ele>
        <time>2013-12-22T11:21:25Z</time>
      </trkpt>
      <trkpt lat="50.01161" lon="2.1951">
        <ele>112.4</ele>
        <time>2013-12-22T11:21:34Z</time>
      </trkpt>
      <trkpt lat="50.01171" lon="2.19498">
        <ele>114</ele>
        <time>2013-12-22T11:21:45Z</time>
      </trkpt>
      <trkpt lat="50.01185" lon="2.19493">
        <ele>116.3</ele>
        <time>2013-12-22T11:21:55Z</time>
      </trkpt>
      <trkpt lat="50.01199" lon="2.19487">
        <ele>117.9</ele>
        <time>2013-12-22T11:22:03Z</time>
      </trkpt>
      <trkpt lat="50.01213" lon="2.19488">
        <ele>117</ele>
        <time>2013-12-22T11:22:13Z</time>
      </trkpt>
      <trkpt lat="50.01226" lon="2.19498">
        <ele>116.1</ele>
        <time>2013-12-22T11:22:24Z</time>
      </trkpt>
      <trkpt lat="50.01233" lon="2.19507">
        <ele>115.4</ele>
        <time>2013-12-22T11:22:32Z</time>
      </trkpt>
      <trkpt lat="50.01223" lon="2.19523">
        <ele>118.2</ele>
        <time>2013-12-22T11:22:42Z</time>
      </trkpt>
      <trkpt lat="50.01208" lon="2.19527">
        <ele>117.5</ele>
        <time>2013-12-22T11:22:51Z</time>
      </trkpt>
      <trkpt lat="50.01194" lon="2.19531">
        <ele>116.6</ele>
        <time>2013-12-22T11:23:01Z</time>
      </trkpt>
      <trkpt lat="50.01186" lon="2.19548">
        <ele>117.9</ele>
        <time>2013-12-22T11:23:12Z</time>
      </trkpt>
      <trkpt lat="50.01187" lon="2.1957">
        <ele>119.1</ele>
        <time>2013-12-22T11:23:22Z</time>
      </trkpt>
      <trkpt lat="50.01188" lon="2.196">
        <ele>119.5</ele>
        <time>2013-12-22T11:23:44Z</time>
      </trkpt>
      <trkpt lat="50.01188" lon="2.196">
        <ele>119.5</ele>
        <time>2013-12-22T11:24:55Z</time>
      </trkpt>
      <trkpt lat="50.01194" lon="2.1961">
        <ele>118.3</ele>
        <time>2013-12-22T11:24:55Z</time>
      </trkpt>
      <trkpt lat="50.01207" lon="2.196">
        <ele>115.3</ele>
        <time>2013-12-22T11:25:05Z</time>
      </trkpt>
      <trkpt lat="50.01217" lon="2.19583">
        <ele>115.8</ele>
        <time>2013-12-22T11:25:18Z</time>
      </trkpt>
      <trkpt lat="50.01215" lon="2.19561">
        <ele>117.8</ele>
        <time>2013-12-22T11:25:27Z</time>
      </trkpt>
      <trkpt lat="50.01209" lon="2.1954">
        <ele>118.7</ele>
        <time>2013-12-22T11:25:36Z</time>
      </trkpt>
      <trkpt lat="50.01211" lon="2.19534">
        <ele>119.2</ele>
        <time>2013-12-22T11:25:41Z</time>
      </trkpt>
      <trkpt lat="50.01213" lon="2.19535">
        <ele>119.4</ele>
        <time>2013-12-22T11:25:43Z</time>
      </trkpt>
      <trkpt lat="50.01203" lon="2.19527">
        <ele>120.1</ele>
        <time>2013-12-22T11:25:51Z</time>
      </trkpt>
      <trkpt lat="50.01199" lon="2.19539">
        <ele>121</ele>
        <time>2013-12-22T11:26:12Z</time>
      </trkpt>
    </trkseg>
  </trk>
</gpx>